
<gpx xmlns="http://www.topografix.com/GPX/1/1" xmlns:gpxx="http://www.garmin.com/xmlschemas/GpxExtensions/v3" xmlns:xsi="http://www.w3.org/2001/XMLSchema-instance" version="1.1" creator="Adze - http://kobotsw.com/apps/adze" xsi:schemaLocation="http://www.topografix.com/GPX/1/1 http://www.topografix.com/GPX/1/1/gpx.xsd http://www.garmin.com/xmlschemas/GpxExtensions/v3 http://www.garmin.com/xmlschemas/GpxExtensionsv3.xsd">
    <metadata>
        <name>Untitled Document</name>
        <link href="http://www.garmin.com"></link>
        <time>2018-02-26T04:50:42.378Z</time>
    </metadata>
    <wpt lon="100.975072" lat="12.905608">
        <ele>71.983887</ele>
        <name>Horseshoe Point</name>
        <cmt>25-SEP-09 16:05:18</cmt>
        <desc>25-SEP-09 16:05:18</desc>
        <sym>Lodging</sym>
        <extensions>
            <gpxx:WaypointExtension xmlns:gpxx="http://www.garmin.com/xmlschemas/GpxExtensions/v3">
                <gpxx:DisplayMode>SymbolAndName</gpxx:DisplayMode>
            </gpxx:WaypointExtension>
        </extensions>
    </wpt>
    <trk>
        <name>Saturday</name>
        <extensions>
            <gpxx:TrackExtension xmlns:gpxx="http://www.garmin.com/xmlschemas/GpxExtensions/v3">
                <gpxx:DisplayColor>Red</gpxx:DisplayColor>
            </gpxx:TrackExtension>
        </extensions>
        <trkseg>
            <trkpt lon="100.974316" lat="12.906117">
                <ele>83.200000</ele>
                <time>2015-03-28T06:04:12Z</time>
            </trkpt>
            <trkpt lon="100.973955" lat="12.904673">
                <ele>81.800000</ele>
                <time>2015-03-28T06:04:48Z</time>
            </trkpt>
            <trkpt lon="100.972925" lat="12.904540">
                <ele>81.400000</ele>
                <time>2015-03-28T06:05:08Z</time>
            </trkpt>
            <trkpt lon="100.972934" lat="12.904345">
                <ele>81.600000</ele>
                <time>2015-03-28T06:05:13Z</time>
            </trkpt>
            <trkpt lon="100.972809" lat="12.903981">
                <ele>81.000000</ele>
                <time>2015-03-28T06:05:20Z</time>
            </trkpt>
            <trkpt lon="100.973007" lat="12.902425">
                <ele>76.000000</ele>
                <time>2015-03-28T06:05:42Z</time>
            </trkpt>
            <trkpt lon="100.972945" lat="12.901961">
                <ele>74.200000</ele>
                <time>2015-03-28T06:05:50Z</time>
            </trkpt>
            <trkpt lon="100.972956" lat="12.901902">
                <ele>72.400000</ele>
                <time>2015-03-28T06:05:59Z</time>
            </trkpt>
            <trkpt lon="100.974689" lat="12.902340">
                <ele>73.800000</ele>
                <time>2015-03-28T06:06:37Z</time>
            </trkpt>
            <trkpt lon="100.975522" lat="12.902190">
                <ele>74.800000</ele>
                <time>2015-03-28T06:06:50Z</time>
            </trkpt>
            <trkpt lon="100.976614" lat="12.902430">
                <ele>76.600000</ele>
                <time>2015-03-28T06:07:10Z</time>
            </trkpt>
            <trkpt lon="100.976697" lat="12.902417">
                <ele>76.800000</ele>
                <time>2015-03-28T06:07:12Z</time>
            </trkpt>
            <trkpt lon="100.976668" lat="12.902081">
                <ele>77.800000</ele>
                <time>2015-03-28T06:07:19Z</time>
            </trkpt>
            <trkpt lon="100.976519" lat="12.901350">
                <ele>74.600000</ele>
                <time>2015-03-28T06:07:31Z</time>
            </trkpt>
            <trkpt lon="100.977325" lat="12.899858">
                <ele>73.400000</ele>
                <time>2015-03-28T06:08:00Z</time>
            </trkpt>
            <trkpt lon="100.978046" lat="12.898086">
                <ele>71.800000</ele>
                <time>2015-03-28T06:08:30Z</time>
            </trkpt>
            <trkpt lon="100.978149" lat="12.897760">
                <ele>70.400000</ele>
                <time>2015-03-28T06:08:36Z</time>
            </trkpt>
            <trkpt lon="100.978625" lat="12.896717">
                <ele>69.800000</ele>
                <time>2015-03-28T06:08:55Z</time>
            </trkpt>
            <trkpt lon="100.980455" lat="12.897054">
                <ele>70.200000</ele>
                <time>2015-03-28T06:09:29Z</time>
            </trkpt>
            <trkpt lon="100.981186" lat="12.896917">
                <ele>70.400000</ele>
                <time>2015-03-28T06:09:45Z</time>
            </trkpt>
            <trkpt lon="100.981246" lat="12.896928">
                <ele>70.600000</ele>
                <time>2015-03-28T06:09:47Z</time>
            </trkpt>
            <trkpt lon="100.981719" lat="12.897541">
                <ele>72.000000</ele>
                <time>2015-03-28T06:10:10Z</time>
            </trkpt>
            <trkpt lon="100.981898" lat="12.898075">
                <ele>73.600000</ele>
                <time>2015-03-28T06:10:28Z</time>
            </trkpt>
            <trkpt lon="100.981895" lat="12.898093">
                <ele>73.600000</ele>
                <time>2015-03-28T06:10:30Z</time>
            </trkpt>
            <trkpt lon="100.981889" lat="12.898120">
                <ele>73.800000</ele>
                <time>2015-03-28T06:10:33Z</time>
            </trkpt>
            <trkpt lon="100.981905" lat="12.898123">
                <ele>73.800000</ele>
                <time>2015-03-28T06:10:35Z</time>
            </trkpt>
            <trkpt lon="100.981913" lat="12.898118">
                <ele>74.000000</ele>
                <time>2015-03-28T06:10:37Z</time>
            </trkpt>
            <trkpt lon="100.982475" lat="12.898263">
                <ele>75.400000</ele>
                <time>2015-03-28T06:11:19Z</time>
            </trkpt>
            <trkpt lon="100.983997" lat="12.899331">
                <ele>81.200000</ele>
                <time>2015-03-28T06:12:36Z</time>
            </trkpt>
            <trkpt lon="100.984982" lat="12.900021">
                <ele>83.600000</ele>
                <time>2015-03-28T06:13:22Z</time>
            </trkpt>
            <trkpt lon="100.985257" lat="12.900009">
                <ele>83.800000</ele>
                <time>2015-03-28T06:13:33Z</time>
            </trkpt>
            <trkpt lon="100.985307" lat="12.899993">
                <ele>83.800000</ele>
                <time>2015-03-28T06:13:35Z</time>
            </trkpt>
            <trkpt lon="100.985380" lat="12.899975">
                <ele>83.800000</ele>
                <time>2015-03-28T06:13:37Z</time>
            </trkpt>
            <trkpt lon="100.985614" lat="12.899915">
                <ele>84.400000</ele>
                <time>2015-03-28T06:13:42Z</time>
            </trkpt>
            <trkpt lon="100.986212" lat="12.899878">
                <ele>83.800000</ele>
                <time>2015-03-28T06:13:56Z</time>
            </trkpt>
            <trkpt lon="100.986288" lat="12.900294">
                <ele>83.800000</ele>
                <time>2015-03-28T06:14:06Z</time>
            </trkpt>
            <trkpt lon="100.985980" lat="12.903111">
                <ele>89.600000</ele>
                <time>2015-03-28T06:15:06Z</time>
            </trkpt>
            <trkpt lon="100.985961" lat="12.903322">
                <ele>89.800000</ele>
                <time>2015-03-28T06:15:11Z</time>
            </trkpt>
            <trkpt lon="100.985966" lat="12.903375">
                <ele>90.400000</ele>
                <time>2015-03-28T06:15:13Z</time>
            </trkpt>
            <trkpt lon="100.985705" lat="12.904283">
                <ele>90.600000</ele>
                <time>2015-03-28T06:15:33Z</time>
            </trkpt>
            <trkpt lon="100.985782" lat="12.904412">
                <ele>90.800000</ele>
                <time>2015-03-28T06:15:37Z</time>
            </trkpt>
            <trkpt lon="100.985849" lat="12.904834">
                <ele>89.600000</ele>
                <time>2015-03-28T06:15:46Z</time>
            </trkpt>
            <trkpt lon="100.986047" lat="12.905035">
                <ele>89.800000</ele>
                <time>2015-03-28T06:15:52Z</time>
            </trkpt>
            <trkpt lon="100.986406" lat="12.905384">
                <ele>88.200000</ele>
                <time>2015-03-28T06:16:02Z</time>
            </trkpt>
            <trkpt lon="100.986592" lat="12.905619">
                <ele>87.400000</ele>
                <time>2015-03-28T06:16:08Z</time>
            </trkpt>
            <trkpt lon="100.986623" lat="12.905670">
                <ele>87.400000</ele>
                <time>2015-03-28T06:16:10Z</time>
            </trkpt>
            <trkpt lon="100.986665" lat="12.905833">
                <ele>86.800000</ele>
                <time>2015-03-28T06:16:20Z</time>
            </trkpt>
            <trkpt lon="100.986456" lat="12.905963">
                <ele>86.600000</ele>
                <time>2015-03-28T06:16:40Z</time>
            </trkpt>
            <trkpt lon="100.986442" lat="12.906005">
                <ele>86.800000</ele>
                <time>2015-03-28T06:16:42Z</time>
            </trkpt>
            <trkpt lon="100.986416" lat="12.906176">
                <ele>86.200000</ele>
                <time>2015-03-28T06:16:59Z</time>
            </trkpt>
            <trkpt lon="100.986421" lat="12.906176">
                <ele>86.200000</ele>
                <time>2015-03-28T06:17:01Z</time>
            </trkpt>
            <trkpt lon="100.986425" lat="12.906177">
                <ele>86.200000</ele>
                <time>2015-03-28T06:17:08Z</time>
            </trkpt>
            <trkpt lon="100.988385" lat="12.909370">
                <ele>89.200000</ele>
                <time>2015-03-28T06:19:07Z</time>
            </trkpt>
            <trkpt lon="100.988795" lat="12.909999">
                <ele>87.200000</ele>
                <time>2015-03-28T06:19:21Z</time>
            </trkpt>
            <trkpt lon="100.988516" lat="12.909597">
                <ele>86.200000</ele>
                <time>2015-03-28T06:19:35Z</time>
            </trkpt>
            <trkpt lon="100.988055" lat="12.908830">
                <ele>90.000000</ele>
                <time>2015-03-28T06:19:53Z</time>
            </trkpt>
            <trkpt lon="100.987708" lat="12.908306">
                <ele>89.800000</ele>
                <time>2015-03-28T06:20:06Z</time>
            </trkpt>
            <trkpt lon="100.987648" lat="12.908208">
                <ele>89.400000</ele>
                <time>2015-03-28T06:20:09Z</time>
            </trkpt>
            <trkpt lon="100.987615" lat="12.908185">
                <ele>89.200000</ele>
                <time>2015-03-28T06:20:11Z</time>
            </trkpt>
            <trkpt lon="100.987589" lat="12.908180">
                <ele>89.000000</ele>
                <time>2015-03-28T06:20:13Z</time>
            </trkpt>
            <trkpt lon="100.987570" lat="12.908156">
                <ele>88.600000</ele>
                <time>2015-03-28T06:20:16Z</time>
            </trkpt>
            <trkpt lon="100.987571" lat="12.908135">
                <ele>88.600000</ele>
                <time>2015-03-28T06:20:18Z</time>
            </trkpt>
            <trkpt lon="100.987552" lat="12.908113">
                <ele>88.600000</ele>
                <time>2015-03-28T06:20:21Z</time>
            </trkpt>
            <trkpt lon="100.987537" lat="12.908096">
                <ele>88.600000</ele>
                <time>2015-03-28T06:20:24Z</time>
            </trkpt>
            <trkpt lon="100.987534" lat="12.908094">
                <ele>88.600000</ele>
                <time>2015-03-28T06:20:26Z</time>
            </trkpt>
            <trkpt lon="100.987641" lat="12.908154">
                <ele>88.600000</ele>
                <time>2015-03-28T06:20:40Z</time>
            </trkpt>
            <trkpt lon="100.987660" lat="12.908255">
                <ele>88.800000</ele>
                <time>2015-03-28T06:20:52Z</time>
            </trkpt>
            <trkpt lon="100.988258" lat="12.909175">
                <ele>89.800000</ele>
                <time>2015-03-28T06:21:24Z</time>
            </trkpt>
            <trkpt lon="100.988975" lat="12.910330">
                <ele>86.800000</ele>
                <time>2015-03-28T06:21:49Z</time>
            </trkpt>
            <trkpt lon="100.989197" lat="12.910536">
                <ele>85.800000</ele>
                <time>2015-03-28T06:21:57Z</time>
            </trkpt>
            <trkpt lon="100.989642" lat="12.911298">
                <ele>86.400000</ele>
                <time>2015-03-28T06:22:19Z</time>
            </trkpt>
            <trkpt lon="100.990172" lat="12.910899">
                <ele>87.400000</ele>
                <time>2015-03-28T06:22:37Z</time>
            </trkpt>
            <trkpt lon="100.990437" lat="12.911105">
                <ele>87.800000</ele>
                <time>2015-03-28T06:22:45Z</time>
            </trkpt>
            <trkpt lon="100.990517" lat="12.911348">
                <ele>87.800000</ele>
                <time>2015-03-28T06:22:51Z</time>
            </trkpt>
            <trkpt lon="100.990619" lat="12.911565">
                <ele>88.000000</ele>
                <time>2015-03-28T06:22:57Z</time>
            </trkpt>
            <trkpt lon="100.990670" lat="12.911604">
                <ele>88.000000</ele>
                <time>2015-03-28T06:22:59Z</time>
            </trkpt>
            <trkpt lon="100.991245" lat="12.911536">
                <ele>88.600000</ele>
                <time>2015-03-28T06:23:13Z</time>
            </trkpt>
            <trkpt lon="100.991469" lat="12.911651">
                <ele>88.400000</ele>
                <time>2015-03-28T06:23:19Z</time>
            </trkpt>
            <trkpt lon="100.991748" lat="12.912103">
                <ele>89.800000</ele>
                <time>2015-03-28T06:23:30Z</time>
            </trkpt>
            <trkpt lon="100.991799" lat="12.912724">
                <ele>92.000000</ele>
                <time>2015-03-28T06:23:44Z</time>
            </trkpt>
            <trkpt lon="100.991934" lat="12.913158">
                <ele>92.800000</ele>
                <time>2015-03-28T06:23:55Z</time>
            </trkpt>
            <trkpt lon="100.992149" lat="12.913056">
                <ele>93.600000</ele>
                <time>2015-03-28T06:24:02Z</time>
            </trkpt>
            <trkpt lon="100.992567" lat="12.912640">
                <ele>92.800000</ele>
                <time>2015-03-28T06:24:14Z</time>
            </trkpt>
            <trkpt lon="100.993363" lat="12.913125">
                <ele>93.800000</ele>
                <time>2015-03-28T06:24:35Z</time>
            </trkpt>
            <trkpt lon="100.993910" lat="12.913444">
                <ele>94.200000</ele>
                <time>2015-03-28T06:24:49Z</time>
            </trkpt>
            <trkpt lon="100.993835" lat="12.913785">
                <ele>96.000000</ele>
                <time>2015-03-28T06:25:00Z</time>
            </trkpt>
            <trkpt lon="100.993789" lat="12.913911">
                <ele>96.400000</ele>
                <time>2015-03-28T06:25:03Z</time>
            </trkpt>
            <trkpt lon="100.993562" lat="12.914945">
                <ele>95.800000</ele>
                <time>2015-03-28T06:25:22Z</time>
            </trkpt>
            <trkpt lon="100.993436" lat="12.915297">
                <ele>92.800000</ele>
                <time>2015-03-28T06:25:29Z</time>
            </trkpt>
            <trkpt lon="100.994008" lat="12.915308">
                <ele>93.400000</ele>
                <time>2015-03-28T06:25:48Z</time>
            </trkpt>
            <trkpt lon="100.995013" lat="12.915849">
                <ele>94.600000</ele>
                <time>2015-03-28T06:26:16Z</time>
            </trkpt>
            <trkpt lon="100.995319" lat="12.915715">
                <ele>95.200000</ele>
                <time>2015-03-28T06:26:24Z</time>
            </trkpt>
            <trkpt lon="100.995804" lat="12.915737">
                <ele>97.200000</ele>
                <time>2015-03-28T06:26:34Z</time>
            </trkpt>
            <trkpt lon="100.996713" lat="12.915934">
                <ele>98.600000</ele>
                <time>2015-03-28T06:26:52Z</time>
            </trkpt>
            <trkpt lon="100.996923" lat="12.916042">
                <ele>98.800000</ele>
                <time>2015-03-28T06:26:56Z</time>
            </trkpt>
            <trkpt lon="100.996985" lat="12.916374">
                <ele>99.400000</ele>
                <time>2015-03-28T06:27:02Z</time>
            </trkpt>
            <trkpt lon="100.996897" lat="12.916685">
                <ele>99.000000</ele>
                <time>2015-03-28T06:27:07Z</time>
            </trkpt>
            <trkpt lon="100.996611" lat="12.917553">
                <ele>99.800000</ele>
                <time>2015-03-28T06:27:22Z</time>
            </trkpt>
            <trkpt lon="100.996537" lat="12.917887">
                <ele>100.000000</ele>
                <time>2015-03-28T06:27:28Z</time>
            </trkpt>
            <trkpt lon="100.996636" lat="12.917983">
                <ele>100.600000</ele>
                <time>2015-03-28T06:27:31Z</time>
            </trkpt>
            <trkpt lon="100.998616" lat="12.918206">
                <ele>102.200000</ele>
                <time>2015-03-28T06:28:06Z</time>
            </trkpt>
            <trkpt lon="100.999201" lat="12.917128">
                <ele>103.600000</ele>
                <time>2015-03-28T06:28:32Z</time>
            </trkpt>
            <trkpt lon="100.999219" lat="12.917074">
                <ele>103.800000</ele>
                <time>2015-03-28T06:28:34Z</time>
            </trkpt>
            <trkpt lon="100.999233" lat="12.917024">
                <ele>103.800000</ele>
                <time>2015-03-28T06:28:36Z</time>
            </trkpt>
            <trkpt lon="100.999656" lat="12.917064">
                <ele>105.000000</ele>
                <time>2015-03-28T06:28:48Z</time>
            </trkpt>
            <trkpt lon="101.000231" lat="12.917436">
                <ele>105.400000</ele>
                <time>2015-03-28T06:28:59Z</time>
            </trkpt>
            <trkpt lon="101.001077" lat="12.918731">
                <ele>106.600000</ele>
                <time>2015-03-28T06:29:22Z</time>
            </trkpt>
            <trkpt lon="101.003714" lat="12.920589">
                <ele>115.200000</ele>
                <time>2015-03-28T06:30:25Z</time>
            </trkpt>
            <trkpt lon="101.004200" lat="12.920631">
                <ele>117.200000</ele>
                <time>2015-03-28T06:30:39Z</time>
            </trkpt>
            <trkpt lon="101.004250" lat="12.920769">
                <ele>118.000000</ele>
                <time>2015-03-28T06:30:44Z</time>
            </trkpt>
            <trkpt lon="101.004266" lat="12.921179">
                <ele>117.800000</ele>
                <time>2015-03-28T06:31:02Z</time>
            </trkpt>
            <trkpt lon="101.004264" lat="12.920904">
                <ele>117.400000</ele>
                <time>2015-03-28T06:31:23Z</time>
            </trkpt>
            <trkpt lon="101.004471" lat="12.921019">
                <ele>118.400000</ele>
                <time>2015-03-28T06:31:37Z</time>
            </trkpt>
            <trkpt lon="101.004500" lat="12.921089">
                <ele>118.600000</ele>
                <time>2015-03-28T06:31:41Z</time>
            </trkpt>
            <trkpt lon="101.004333" lat="12.921153">
                <ele>118.600000</ele>
                <time>2015-03-28T06:31:48Z</time>
            </trkpt>
            <trkpt lon="101.004280" lat="12.921121">
                <ele>118.400000</ele>
                <time>2015-03-28T06:31:51Z</time>
            </trkpt>
            <trkpt lon="101.004241" lat="12.921019">
                <ele>118.000000</ele>
                <time>2015-03-28T06:31:58Z</time>
            </trkpt>
            <trkpt lon="101.004246" lat="12.920957">
                <ele>117.800000</ele>
                <time>2015-03-28T06:32:00Z</time>
            </trkpt>
            <trkpt lon="101.004259" lat="12.920890">
                <ele>117.800000</ele>
                <time>2015-03-28T06:32:02Z</time>
            </trkpt>
            <trkpt lon="101.004550" lat="12.920505">
                <ele>119.000000</ele>
                <time>2015-03-28T06:32:17Z</time>
            </trkpt>
            <trkpt lon="101.004639" lat="12.920373">
                <ele>119.400000</ele>
                <time>2015-03-28T06:32:21Z</time>
            </trkpt>
            <trkpt lon="101.004886" lat="12.920222">
                <ele>119.800000</ele>
                <time>2015-03-28T06:32:28Z</time>
            </trkpt>
            <trkpt lon="101.008897" lat="12.919153">
                <ele>117.200000</ele>
                <time>2015-03-28T06:33:41Z</time>
            </trkpt>
            <trkpt lon="101.008756" lat="12.919112">
                <ele>117.600000</ele>
                <time>2015-03-28T06:33:46Z</time>
            </trkpt>
            <trkpt lon="101.005685" lat="12.919997">
                <ele>118.000000</ele>
                <time>2015-03-28T06:34:44Z</time>
            </trkpt>
            <trkpt lon="101.006681" lat="12.919795">
                <ele>116.800000</ele>
                <time>2015-03-28T06:34:59Z</time>
            </trkpt>
            <trkpt lon="101.007451" lat="12.919463">
                <ele>116.200000</ele>
                <time>2015-03-28T06:35:13Z</time>
            </trkpt>
            <trkpt lon="101.006865" lat="12.919463">
                <ele>114.800000</ele>
                <time>2015-03-28T06:35:32Z</time>
            </trkpt>
            <trkpt lon="101.006818" lat="12.919379">
                <ele>114.400000</ele>
                <time>2015-03-28T06:35:34Z</time>
            </trkpt>
            <trkpt lon="101.006610" lat="12.918129">
                <ele>109.600000</ele>
                <time>2015-03-28T06:36:00Z</time>
            </trkpt>
            <trkpt lon="101.006741" lat="12.917950">
                <ele>107.600000</ele>
                <time>2015-03-28T06:36:06Z</time>
            </trkpt>
            <trkpt lon="101.006750" lat="12.917911">
                <ele>107.200000</ele>
                <time>2015-03-28T06:36:08Z</time>
            </trkpt>
            <trkpt lon="101.006784" lat="12.917794">
                <ele>105.000000</ele>
                <time>2015-03-28T06:36:15Z</time>
            </trkpt>
            <trkpt lon="101.006782" lat="12.917797">
                <ele>104.600000</ele>
                <time>2015-03-28T06:36:16Z</time>
            </trkpt>
            <trkpt lon="101.006784" lat="12.917794">
                <ele>104.600000</ele>
                <time>2015-03-28T06:36:17Z</time>
            </trkpt>
            <trkpt lon="101.006813" lat="12.917739">
                <ele>103.800000</ele>
                <time>2015-03-28T06:36:35Z</time>
            </trkpt>
            <trkpt lon="101.006803" lat="12.918059">
                <ele>107.400000</ele>
                <time>2015-03-28T06:37:35Z</time>
            </trkpt>
            <trkpt lon="101.006828" lat="12.918080">
                <ele>107.200000</ele>
                <time>2015-03-28T06:37:37Z</time>
            </trkpt>
            <trkpt lon="101.006882" lat="12.918102">
                <ele>107.200000</ele>
                <time>2015-03-28T06:37:40Z</time>
            </trkpt>
            <trkpt lon="101.006927" lat="12.918109">
                <ele>107.400000</ele>
                <time>2015-03-28T06:37:42Z</time>
            </trkpt>
            <trkpt lon="101.007152" lat="12.918547">
                <ele>111.600000</ele>
                <time>2015-03-28T06:38:15Z</time>
            </trkpt>
            <trkpt lon="101.007505" lat="12.919467">
                <ele>116.600000</ele>
                <time>2015-03-28T06:39:13Z</time>
            </trkpt>
            <trkpt lon="101.008204" lat="12.919219">
                <ele>117.400000</ele>
                <time>2015-03-28T06:40:08Z</time>
            </trkpt>
            <trkpt lon="101.007614" lat="12.919459">
                <ele>117.600000</ele>
                <time>2015-03-28T06:41:59Z</time>
            </trkpt>
            <trkpt lon="101.007674" lat="12.919445">
                <ele>117.600000</ele>
                <time>2015-03-28T06:42:01Z</time>
            </trkpt>
            <trkpt lon="101.007744" lat="12.919420">
                <ele>117.800000</ele>
                <time>2015-03-28T06:42:03Z</time>
            </trkpt>
            <trkpt lon="101.007831" lat="12.919395">
                <ele>117.800000</ele>
                <time>2015-03-28T06:42:05Z</time>
            </trkpt>
            <trkpt lon="101.007932" lat="12.919360">
                <ele>118.000000</ele>
                <time>2015-03-28T06:42:07Z</time>
            </trkpt>
            <trkpt lon="101.008211" lat="12.919271">
                <ele>118.400000</ele>
                <time>2015-03-28T06:42:12Z</time>
            </trkpt>
            <trkpt lon="101.008489" lat="12.919199">
                <ele>118.400000</ele>
                <time>2015-03-28T06:42:17Z</time>
            </trkpt>
            <trkpt lon="101.008983" lat="12.919137">
                <ele>119.000000</ele>
                <time>2015-03-28T06:42:25Z</time>
            </trkpt>
            <trkpt lon="101.009115" lat="12.919135">
                <ele>119.200000</ele>
                <time>2015-03-28T06:42:27Z</time>
            </trkpt>
            <trkpt lon="101.009249" lat="12.919139">
                <ele>119.400000</ele>
                <time>2015-03-28T06:42:29Z</time>
            </trkpt>
            <trkpt lon="101.009463" lat="12.919120">
                <ele>119.400000</ele>
                <time>2015-03-28T06:42:32Z</time>
            </trkpt>
            <trkpt lon="101.009617" lat="12.919100">
                <ele>119.400000</ele>
                <time>2015-03-28T06:42:34Z</time>
            </trkpt>
            <trkpt lon="101.009838" lat="12.919054">
                <ele>119.200000</ele>
                <time>2015-03-28T06:42:37Z</time>
            </trkpt>
            <trkpt lon="101.010268" lat="12.918919">
                <ele>118.000000</ele>
                <time>2015-03-28T06:42:42Z</time>
            </trkpt>
            <trkpt lon="101.010730" lat="12.918728">
                <ele>115.800000</ele>
                <time>2015-03-28T06:42:47Z</time>
            </trkpt>
            <trkpt lon="101.011779" lat="12.918174">
                <ele>115.800000</ele>
                <time>2015-03-28T06:43:00Z</time>
            </trkpt>
            <trkpt lon="101.012401" lat="12.917161">
                <ele>117.600000</ele>
                <time>2015-03-28T06:43:17Z</time>
            </trkpt>
            <trkpt lon="101.012453" lat="12.917076">
                <ele>118.000000</ele>
                <time>2015-03-28T06:43:19Z</time>
            </trkpt>
            <trkpt lon="101.012504" lat="12.917008">
                <ele>118.000000</ele>
                <time>2015-03-28T06:43:21Z</time>
            </trkpt>
            <trkpt lon="101.012696" lat="12.916877">
                <ele>118.800000</ele>
                <time>2015-03-28T06:43:26Z</time>
            </trkpt>
            <trkpt lon="101.013297" lat="12.916462">
                <ele>119.200000</ele>
                <time>2015-03-28T06:43:39Z</time>
            </trkpt>
            <trkpt lon="101.014442" lat="12.915893">
                <ele>117.800000</ele>
                <time>2015-03-28T06:43:58Z</time>
            </trkpt>
            <trkpt lon="101.014893" lat="12.916139">
                <ele>119.000000</ele>
                <time>2015-03-28T06:44:10Z</time>
            </trkpt>
            <trkpt lon="101.015320" lat="12.916185">
                <ele>121.400000</ele>
                <time>2015-03-28T06:44:19Z</time>
            </trkpt>
            <trkpt lon="101.015374" lat="12.916188">
                <ele>121.600000</ele>
                <time>2015-03-28T06:44:20Z</time>
            </trkpt>
            <trkpt lon="101.015478" lat="12.916198">
                <ele>121.800000</ele>
                <time>2015-03-28T06:44:22Z</time>
            </trkpt>
            <trkpt lon="101.015705" lat="12.916227">
                <ele>121.600000</ele>
                <time>2015-03-28T06:44:26Z</time>
            </trkpt>
            <trkpt lon="101.016654" lat="12.916005">
                <ele>124.200000</ele>
                <time>2015-03-28T06:44:49Z</time>
            </trkpt>
            <trkpt lon="101.016744" lat="12.915976">
                <ele>124.200000</ele>
                <time>2015-03-28T06:44:52Z</time>
            </trkpt>
            <trkpt lon="101.017706" lat="12.915395">
                <ele>126.000000</ele>
                <time>2015-03-28T06:45:22Z</time>
            </trkpt>
            <trkpt lon="101.018974" lat="12.913995">
                <ele>131.800000</ele>
                <time>2015-03-28T06:46:16Z</time>
            </trkpt>
            <trkpt lon="101.019297" lat="12.913813">
                <ele>132.600000</ele>
                <time>2015-03-28T06:46:25Z</time>
            </trkpt>
            <trkpt lon="101.020371" lat="12.913600">
                <ele>133.800000</ele>
                <time>2015-03-28T06:46:49Z</time>
            </trkpt>
            <trkpt lon="101.020835" lat="12.911879">
                <ele>137.800000</ele>
                <time>2015-03-28T06:47:41Z</time>
            </trkpt>
            <trkpt lon="101.021027" lat="12.911747">
                <ele>138.600000</ele>
                <time>2015-03-28T06:47:50Z</time>
            </trkpt>
            <trkpt lon="101.021086" lat="12.911707">
                <ele>138.600000</ele>
                <time>2015-03-28T06:47:52Z</time>
            </trkpt>
            <trkpt lon="101.022241" lat="12.911326">
                <ele>143.000000</ele>
                <time>2015-03-28T06:48:28Z</time>
            </trkpt>
            <trkpt lon="101.022337" lat="12.910704">
                <ele>146.600000</ele>
                <time>2015-03-28T06:48:51Z</time>
            </trkpt>
            <trkpt lon="101.022434" lat="12.910689">
                <ele>147.400000</ele>
                <time>2015-03-28T06:48:55Z</time>
            </trkpt>
            <trkpt lon="101.022435" lat="12.910705">
                <ele>147.600000</ele>
                <time>2015-03-28T06:48:57Z</time>
            </trkpt>
            <trkpt lon="101.022177" lat="12.910682">
                <ele>147.800000</ele>
                <time>2015-03-28T06:49:09Z</time>
            </trkpt>
            <trkpt lon="101.022268" lat="12.909356">
                <ele>151.000000</ele>
                <time>2015-03-28T06:49:54Z</time>
            </trkpt>
            <trkpt lon="101.022862" lat="12.909233">
                <ele>153.000000</ele>
                <time>2015-03-28T06:50:17Z</time>
            </trkpt>
            <trkpt lon="101.022882" lat="12.909019">
                <ele>154.000000</ele>
                <time>2015-03-28T06:50:25Z</time>
            </trkpt>
            <trkpt lon="101.022775" lat="12.906526">
                <ele>156.000000</ele>
                <time>2015-03-28T06:51:32Z</time>
            </trkpt>
            <trkpt lon="101.023037" lat="12.906098">
                <ele>156.800000</ele>
                <time>2015-03-28T06:51:45Z</time>
            </trkpt>
            <trkpt lon="101.023111" lat="12.905551">
                <ele>158.800000</ele>
                <time>2015-03-28T06:51:59Z</time>
            </trkpt>
            <trkpt lon="101.023262" lat="12.905157">
                <ele>159.600000</ele>
                <time>2015-03-28T06:52:09Z</time>
            </trkpt>
            <trkpt lon="101.023417" lat="12.904874">
                <ele>160.200000</ele>
                <time>2015-03-28T06:52:16Z</time>
            </trkpt>
            <trkpt lon="101.023747" lat="12.904168">
                <ele>161.200000</ele>
                <time>2015-03-28T06:52:33Z</time>
            </trkpt>
            <trkpt lon="101.023969" lat="12.903793">
                <ele>161.000000</ele>
                <time>2015-03-28T06:52:42Z</time>
            </trkpt>
            <trkpt lon="101.024199" lat="12.903570">
                <ele>160.600000</ele>
                <time>2015-03-28T06:52:47Z</time>
            </trkpt>
            <trkpt lon="101.025227" lat="12.902749">
                <ele>160.800000</ele>
                <time>2015-03-28T06:53:15Z</time>
            </trkpt>
            <trkpt lon="101.025354" lat="12.902646">
                <ele>161.400000</ele>
                <time>2015-03-28T06:53:30Z</time>
            </trkpt>
            <trkpt lon="101.024581" lat="12.903110">
                <ele>160.600000</ele>
                <time>2015-03-28T06:54:32Z</time>
            </trkpt>
            <trkpt lon="101.024029" lat="12.901659">
                <ele>168.800000</ele>
                <time>2015-03-28T06:55:47Z</time>
            </trkpt>
            <trkpt lon="101.024393" lat="12.901447">
                <ele>169.800000</ele>
                <time>2015-03-28T06:56:05Z</time>
            </trkpt>
            <trkpt lon="101.025227" lat="12.901052">
                <ele>171.800000</ele>
                <time>2015-03-28T06:56:35Z</time>
            </trkpt>
            <trkpt lon="101.025386" lat="12.900954">
                <ele>173.000000</ele>
                <time>2015-03-28T06:56:44Z</time>
            </trkpt>
            <trkpt lon="101.025373" lat="12.899811">
                <ele>180.000000</ele>
                <time>2015-03-28T06:58:02Z</time>
            </trkpt>
            <trkpt lon="101.025323" lat="12.899605">
                <ele>181.000000</ele>
                <time>2015-03-28T06:58:15Z</time>
            </trkpt>
            <trkpt lon="101.024977" lat="12.899192">
                <ele>183.000000</ele>
                <time>2015-03-28T06:58:35Z</time>
            </trkpt>
            <trkpt lon="101.024859" lat="12.898833">
                <ele>183.400000</ele>
                <time>2015-03-28T06:58:47Z</time>
            </trkpt>
            <trkpt lon="101.024687" lat="12.898664">
                <ele>182.800000</ele>
                <time>2015-03-28T06:58:53Z</time>
            </trkpt>
            <trkpt lon="101.024578" lat="12.898693">
                <ele>182.000000</ele>
                <time>2015-03-28T06:58:56Z</time>
            </trkpt>
            <trkpt lon="101.024482" lat="12.898731">
                <ele>182.000000</ele>
                <time>2015-03-28T06:58:59Z</time>
            </trkpt>
            <trkpt lon="101.024231" lat="12.898822">
                <ele>182.000000</ele>
                <time>2015-03-28T06:59:05Z</time>
            </trkpt>
            <trkpt lon="101.024726" lat="12.898621">
                <ele>181.800000</ele>
                <time>2015-03-28T07:00:00Z</time>
            </trkpt>
            <trkpt lon="101.024724" lat="12.898458">
                <ele>182.000000</ele>
                <time>2015-03-28T07:00:05Z</time>
            </trkpt>
            <trkpt lon="101.024656" lat="12.898368">
                <ele>181.800000</ele>
                <time>2015-03-28T07:00:08Z</time>
            </trkpt>
            <trkpt lon="101.023760" lat="12.898664">
                <ele>180.000000</ele>
                <time>2015-03-28T07:00:28Z</time>
            </trkpt>
            <trkpt lon="101.023232" lat="12.898829">
                <ele>177.200000</ele>
                <time>2015-03-28T07:00:40Z</time>
            </trkpt>
            <trkpt lon="101.023054" lat="12.898792">
                <ele>176.200000</ele>
                <time>2015-03-28T07:00:46Z</time>
            </trkpt>
            <trkpt lon="101.022755" lat="12.898543">
                <ele>175.800000</ele>
                <time>2015-03-28T07:00:59Z</time>
            </trkpt>
            <trkpt lon="101.022582" lat="12.898574">
                <ele>176.000000</ele>
                <time>2015-03-28T07:01:02Z</time>
            </trkpt>
            <trkpt lon="101.022226" lat="12.898651">
                <ele>174.800000</ele>
                <time>2015-03-28T07:01:08Z</time>
            </trkpt>
            <trkpt lon="101.021930" lat="12.898333">
                <ele>173.600000</ele>
                <time>2015-03-28T07:01:16Z</time>
            </trkpt>
            <trkpt lon="101.021836" lat="12.898195">
                <ele>173.200000</ele>
                <time>2015-03-28T07:01:20Z</time>
            </trkpt>
            <trkpt lon="101.021814" lat="12.898146">
                <ele>173.200000</ele>
                <time>2015-03-28T07:01:22Z</time>
            </trkpt>
            <trkpt lon="101.021800" lat="12.898110">
                <ele>173.400000</ele>
                <time>2015-03-28T07:01:24Z</time>
            </trkpt>
            <trkpt lon="101.021784" lat="12.898095">
                <ele>173.200000</ele>
                <time>2015-03-28T07:01:27Z</time>
            </trkpt>
            <trkpt lon="101.021774" lat="12.898094">
                <ele>173.200000</ele>
                <time>2015-03-28T07:01:29Z</time>
            </trkpt>
            <trkpt lon="101.021764" lat="12.898092">
                <ele>173.000000</ele>
                <time>2015-03-28T07:01:31Z</time>
            </trkpt>
            <trkpt lon="101.021754" lat="12.898085">
                <ele>173.000000</ele>
                <time>2015-03-28T07:01:33Z</time>
            </trkpt>
            <trkpt lon="101.021538" lat="12.896547">
                <ele>180.200000</ele>
                <time>2015-03-28T07:02:44Z</time>
            </trkpt>
            <trkpt lon="101.021462" lat="12.896441">
                <ele>179.600000</ele>
                <time>2015-03-28T07:05:42Z</time>
            </trkpt>
            <trkpt lon="101.022348" lat="12.895697">
                <ele>189.000000</ele>
                <time>2015-03-28T07:07:58Z</time>
            </trkpt>
            <trkpt lon="101.022042" lat="12.895184">
                <ele>193.800000</ele>
                <time>2015-03-28T07:08:25Z</time>
            </trkpt>
            <trkpt lon="101.021146" lat="12.893953">
                <ele>201.000000</ele>
                <time>2015-03-28T07:09:32Z</time>
            </trkpt>
            <trkpt lon="101.020807" lat="12.894019">
                <ele>203.000000</ele>
                <time>2015-03-28T07:09:48Z</time>
            </trkpt>
            <trkpt lon="101.020717" lat="12.893885">
                <ele>203.800000</ele>
                <time>2015-03-28T07:09:56Z</time>
            </trkpt>
            <trkpt lon="101.020706" lat="12.893879">
                <ele>204.200000</ele>
                <time>2015-03-28T07:09:59Z</time>
            </trkpt>
            <trkpt lon="101.020551" lat="12.893756">
                <ele>204.800000</ele>
                <time>2015-03-28T07:10:09Z</time>
            </trkpt>
            <trkpt lon="101.019362" lat="12.893863">
                <ele>218.600000</ele>
                <time>2015-03-28T07:11:34Z</time>
            </trkpt>
            <trkpt lon="101.019172" lat="12.893883">
                <ele>219.200000</ele>
                <time>2015-03-28T07:11:44Z</time>
            </trkpt>
            <trkpt lon="101.018998" lat="12.893920">
                <ele>219.200000</ele>
                <time>2015-03-28T07:11:50Z</time>
            </trkpt>
            <trkpt lon="101.018428" lat="12.893974">
                <ele>222.800000</ele>
                <time>2015-03-28T07:12:20Z</time>
            </trkpt>
            <trkpt lon="101.018176" lat="12.894082">
                <ele>226.800000</ele>
                <time>2015-03-28T07:12:38Z</time>
            </trkpt>
            <trkpt lon="101.017712" lat="12.894547">
                <ele>230.200000</ele>
                <time>2015-03-28T07:14:11Z</time>
            </trkpt>
            <trkpt lon="101.017127" lat="12.894507">
                <ele>236.800000</ele>
                <time>2015-03-28T07:15:12Z</time>
            </trkpt>
            <trkpt lon="101.016979" lat="12.894263">
                <ele>242.800000</ele>
                <time>2015-03-28T07:15:48Z</time>
            </trkpt>
            <trkpt lon="101.016955" lat="12.894254">
                <ele>243.200000</ele>
                <time>2015-03-28T07:15:50Z</time>
            </trkpt>
            <trkpt lon="101.016934" lat="12.894253">
                <ele>243.400000</ele>
                <time>2015-03-28T07:15:52Z</time>
            </trkpt>
            <trkpt lon="101.016440" lat="12.894305">
                <ele>246.800000</ele>
                <time>2015-03-28T07:16:31Z</time>
            </trkpt>
            <trkpt lon="101.016068" lat="12.894146">
                <ele>245.200000</ele>
                <time>2015-03-28T07:16:43Z</time>
            </trkpt>
            <trkpt lon="101.015594" lat="12.894254">
                <ele>242.000000</ele>
                <time>2015-03-28T07:16:51Z</time>
            </trkpt>
            <trkpt lon="101.014739" lat="12.894445">
                <ele>234.200000</ele>
                <time>2015-03-28T07:17:12Z</time>
            </trkpt>
            <trkpt lon="101.014605" lat="12.894481">
                <ele>233.200000</ele>
                <time>2015-03-28T07:17:14Z</time>
            </trkpt>
            <trkpt lon="101.013870" lat="12.894812">
                <ele>237.400000</ele>
                <time>2015-03-28T07:18:01Z</time>
            </trkpt>
            <trkpt lon="101.013595" lat="12.894598">
                <ele>244.600000</ele>
                <time>2015-03-28T07:19:02Z</time>
            </trkpt>
            <trkpt lon="101.013509" lat="12.894403">
                <ele>249.200000</ele>
                <time>2015-03-28T07:19:34Z</time>
            </trkpt>
            <trkpt lon="101.013493" lat="12.894378">
                <ele>249.400000</ele>
                <time>2015-03-28T07:19:41Z</time>
            </trkpt>
            <trkpt lon="101.013480" lat="12.894368">
                <ele>249.800000</ele>
                <time>2015-03-28T07:19:44Z</time>
            </trkpt>
            <trkpt lon="101.013340" lat="12.894312">
                <ele>253.600000</ele>
                <time>2015-03-28T07:20:25Z</time>
            </trkpt>
            <trkpt lon="101.013050" lat="12.894136">
                <ele>259.600000</ele>
                <time>2015-03-28T07:21:02Z</time>
            </trkpt>
            <trkpt lon="101.012718" lat="12.894616">
                <ele>270.200000</ele>
                <time>2015-03-28T07:22:26Z</time>
            </trkpt>
            <trkpt lon="101.012577" lat="12.894707">
                <ele>268.800000</ele>
                <time>2015-03-28T07:26:20Z</time>
            </trkpt>
            <trkpt lon="101.012637" lat="12.894564">
                <ele>271.000000</ele>
                <time>2015-03-28T07:27:54Z</time>
            </trkpt>
            <trkpt lon="101.012638" lat="12.894561">
                <ele>271.000000</ele>
                <time>2015-03-28T07:28:06Z</time>
            </trkpt>
            <trkpt lon="101.012361" lat="12.894391">
                <ele>267.200000</ele>
                <time>2015-03-28T07:28:25Z</time>
            </trkpt>
            <trkpt lon="101.012206" lat="12.894112">
                <ele>263.800000</ele>
                <time>2015-03-28T07:28:36Z</time>
            </trkpt>
            <trkpt lon="101.011907" lat="12.894032">
                <ele>262.000000</ele>
                <time>2015-03-28T07:28:47Z</time>
            </trkpt>
            <trkpt lon="101.011889" lat="12.893769">
                <ele>260.200000</ele>
                <time>2015-03-28T07:29:28Z</time>
            </trkpt>
            <trkpt lon="101.011915" lat="12.894044">
                <ele>260.800000</ele>
                <time>2015-03-28T07:29:41Z</time>
            </trkpt>
            <trkpt lon="101.012249" lat="12.894148">
                <ele>262.600000</ele>
                <time>2015-03-28T07:30:02Z</time>
            </trkpt>
            <trkpt lon="101.012346" lat="12.894389">
                <ele>263.800000</ele>
                <time>2015-03-28T07:30:11Z</time>
            </trkpt>
            <trkpt lon="101.012348" lat="12.894386">
                <ele>265.600000</ele>
                <time>2015-03-28T07:30:17Z</time>
            </trkpt>
            <trkpt lon="101.012407" lat="12.894399">
                <ele>265.600000</ele>
                <time>2015-03-28T07:30:23Z</time>
            </trkpt>
            <trkpt lon="101.012428" lat="12.894408">
                <ele>265.600000</ele>
                <time>2015-03-28T07:30:25Z</time>
            </trkpt>
            <trkpt lon="101.012459" lat="12.894423">
                <ele>266.000000</ele>
                <time>2015-03-28T07:30:28Z</time>
            </trkpt>
            <trkpt lon="101.012653" lat="12.894552">
                <ele>271.200000</ele>
                <time>2015-03-28T07:30:52Z</time>
            </trkpt>
            <trkpt lon="101.012706" lat="12.894607">
                <ele>272.200000</ele>
                <time>2015-03-28T07:31:04Z</time>
            </trkpt>
            <trkpt lon="101.012726" lat="12.894619">
                <ele>272.400000</ele>
                <time>2015-03-28T07:31:15Z</time>
            </trkpt>
            <trkpt lon="101.012721" lat="12.894623">
                <ele>272.400000</ele>
                <time>2015-03-28T07:31:16Z</time>
            </trkpt>
            <trkpt lon="101.012726" lat="12.894610">
                <ele>272.400000</ele>
                <time>2015-03-28T07:31:19Z</time>
            </trkpt>
            <trkpt lon="101.013028" lat="12.893995">
                <ele>265.200000</ele>
                <time>2015-03-28T07:31:40Z</time>
            </trkpt>
            <trkpt lon="101.012857" lat="12.893427">
                <ele>266.200000</ele>
                <time>2015-03-28T07:32:40Z</time>
            </trkpt>
            <trkpt lon="101.012426" lat="12.892563">
                <ele>251.800000</ele>
                <time>2015-03-28T07:33:29Z</time>
            </trkpt>
            <trkpt lon="101.012255" lat="12.892308">
                <ele>250.800000</ele>
                <time>2015-03-28T07:33:35Z</time>
            </trkpt>
            <trkpt lon="101.012166" lat="12.892205">
                <ele>250.800000</ele>
                <time>2015-03-28T07:33:37Z</time>
            </trkpt>
            <trkpt lon="101.011840" lat="12.891924">
                <ele>248.000000</ele>
                <time>2015-03-28T07:33:44Z</time>
            </trkpt>
            <trkpt lon="101.011473" lat="12.891835">
                <ele>246.400000</ele>
                <time>2015-03-28T07:33:50Z</time>
            </trkpt>
            <trkpt lon="101.011218" lat="12.891436">
                <ele>252.400000</ele>
                <time>2015-03-28T07:34:26Z</time>
            </trkpt>
            <trkpt lon="101.011173" lat="12.891307">
                <ele>252.200000</ele>
                <time>2015-03-28T07:34:32Z</time>
            </trkpt>
            <trkpt lon="101.011224" lat="12.891029">
                <ele>249.200000</ele>
                <time>2015-03-28T07:34:39Z</time>
            </trkpt>
            <trkpt lon="101.011058" lat="12.890984">
                <ele>244.400000</ele>
                <time>2015-03-28T07:35:10Z</time>
            </trkpt>
            <trkpt lon="101.011280" lat="12.891098">
                <ele>246.800000</ele>
                <time>2015-03-28T07:35:46Z</time>
            </trkpt>
            <trkpt lon="101.011379" lat="12.891079">
                <ele>246.200000</ele>
                <time>2015-03-28T07:35:51Z</time>
            </trkpt>
            <trkpt lon="101.011430" lat="12.891077">
                <ele>245.800000</ele>
                <time>2015-03-28T07:35:53Z</time>
            </trkpt>
            <trkpt lon="101.011547" lat="12.891087">
                <ele>243.800000</ele>
                <time>2015-03-28T07:35:58Z</time>
            </trkpt>
            <trkpt lon="101.011788" lat="12.891074">
                <ele>238.400000</ele>
                <time>2015-03-28T07:36:09Z</time>
            </trkpt>
            <trkpt lon="101.011842" lat="12.891056">
                <ele>237.600000</ele>
                <time>2015-03-28T07:36:11Z</time>
            </trkpt>
            <trkpt lon="101.011928" lat="12.891000">
                <ele>236.200000</ele>
                <time>2015-03-28T07:36:14Z</time>
            </trkpt>
            <trkpt lon="101.012004" lat="12.890656">
                <ele>231.400000</ele>
                <time>2015-03-28T07:36:24Z</time>
            </trkpt>
            <trkpt lon="101.011998" lat="12.890566">
                <ele>230.400000</ele>
                <time>2015-03-28T07:36:26Z</time>
            </trkpt>
            <trkpt lon="101.011859" lat="12.890188">
                <ele>231.000000</ele>
                <time>2015-03-28T07:36:40Z</time>
            </trkpt>
            <trkpt lon="101.011549" lat="12.889939">
                <ele>230.400000</ele>
                <time>2015-03-28T07:36:56Z</time>
            </trkpt>
            <trkpt lon="101.011251" lat="12.889781">
                <ele>225.800000</ele>
                <time>2015-03-28T07:37:09Z</time>
            </trkpt>
            <trkpt lon="101.010892" lat="12.889661">
                <ele>223.200000</ele>
                <time>2015-03-28T07:37:21Z</time>
            </trkpt>
            <trkpt lon="101.010444" lat="12.889236">
                <ele>227.400000</ele>
                <time>2015-03-28T07:37:53Z</time>
            </trkpt>
            <trkpt lon="101.010293" lat="12.889129">
                <ele>228.000000</ele>
                <time>2015-03-28T07:38:07Z</time>
            </trkpt>
            <trkpt lon="101.010277" lat="12.889063">
                <ele>228.000000</ele>
                <time>2015-03-28T07:38:09Z</time>
            </trkpt>
            <trkpt lon="101.010256" lat="12.888985">
                <ele>228.000000</ele>
                <time>2015-03-28T07:38:11Z</time>
            </trkpt>
            <trkpt lon="101.010228" lat="12.888906">
                <ele>227.400000</ele>
                <time>2015-03-28T07:38:13Z</time>
            </trkpt>
            <trkpt lon="101.010301" lat="12.888650">
                <ele>225.600000</ele>
                <time>2015-03-28T07:38:21Z</time>
            </trkpt>
            <trkpt lon="101.010344" lat="12.888528">
                <ele>225.000000</ele>
                <time>2015-03-28T07:38:24Z</time>
            </trkpt>
            <trkpt lon="101.010285" lat="12.888455">
                <ele>224.200000</ele>
                <time>2015-03-28T07:38:26Z</time>
            </trkpt>
            <trkpt lon="101.010201" lat="12.888386">
                <ele>223.600000</ele>
                <time>2015-03-28T07:38:28Z</time>
            </trkpt>
            <trkpt lon="101.009927" lat="12.888274">
                <ele>222.800000</ele>
                <time>2015-03-28T07:38:34Z</time>
            </trkpt>
            <trkpt lon="101.009767" lat="12.887980">
                <ele>222.600000</ele>
                <time>2015-03-28T07:38:41Z</time>
            </trkpt>
            <trkpt lon="101.009747" lat="12.887928">
                <ele>222.400000</ele>
                <time>2015-03-28T07:38:43Z</time>
            </trkpt>
            <trkpt lon="101.009112" lat="12.886604">
                <ele>205.200000</ele>
                <time>2015-03-28T07:40:03Z</time>
            </trkpt>
            <trkpt lon="101.009097" lat="12.886589">
                <ele>202.600000</ele>
                <time>2015-03-28T07:40:10Z</time>
            </trkpt>
            <trkpt lon="101.008952" lat="12.886086">
                <ele>198.600000</ele>
                <time>2015-03-28T07:40:30Z</time>
            </trkpt>
            <trkpt lon="101.008939" lat="12.885999">
                <ele>196.800000</ele>
                <time>2015-03-28T07:40:39Z</time>
            </trkpt>
            <trkpt lon="101.009095" lat="12.885664">
                <ele>193.000000</ele>
                <time>2015-03-28T07:41:08Z</time>
            </trkpt>
            <trkpt lon="101.010010" lat="12.885494">
                <ele>172.600000</ele>
                <time>2015-03-28T07:42:03Z</time>
            </trkpt>
            <trkpt lon="101.010045" lat="12.885401">
                <ele>170.200000</ele>
                <time>2015-03-28T07:42:08Z</time>
            </trkpt>
            <trkpt lon="101.009468" lat="12.884515">
                <ele>157.400000</ele>
                <time>2015-03-28T07:42:43Z</time>
            </trkpt>
            <trkpt lon="101.009387" lat="12.884411">
                <ele>156.000000</ele>
                <time>2015-03-28T07:42:46Z</time>
            </trkpt>
            <trkpt lon="101.009026" lat="12.883549">
                <ele>144.200000</ele>
                <time>2015-03-28T07:43:09Z</time>
            </trkpt>
            <trkpt lon="101.009002" lat="12.883415">
                <ele>143.400000</ele>
                <time>2015-03-28T07:43:11Z</time>
            </trkpt>
            <trkpt lon="101.008916" lat="12.883036">
                <ele>140.200000</ele>
                <time>2015-03-28T07:43:16Z</time>
            </trkpt>
            <trkpt lon="101.008829" lat="12.882628">
                <ele>138.200000</ele>
                <time>2015-03-28T07:43:21Z</time>
            </trkpt>
            <trkpt lon="101.008577" lat="12.881493">
                <ele>132.800000</ele>
                <time>2015-03-28T07:43:36Z</time>
            </trkpt>
            <trkpt lon="101.008259" lat="12.881353">
                <ele>131.400000</ele>
                <time>2015-03-28T07:43:43Z</time>
            </trkpt>
            <trkpt lon="101.007617" lat="12.881303">
                <ele>130.000000</ele>
                <time>2015-03-28T07:43:55Z</time>
            </trkpt>
            <trkpt lon="101.006808" lat="12.881174">
                <ele>127.400000</ele>
                <time>2015-03-28T07:44:15Z</time>
            </trkpt>
            <trkpt lon="101.006231" lat="12.881296">
                <ele>126.800000</ele>
                <time>2015-03-28T07:44:29Z</time>
            </trkpt>
            <trkpt lon="101.006182" lat="12.881289">
                <ele>126.600000</ele>
                <time>2015-03-28T07:44:30Z</time>
            </trkpt>
            <trkpt lon="101.005653" lat="12.881019">
                <ele>126.200000</ele>
                <time>2015-03-28T07:44:42Z</time>
            </trkpt>
            <trkpt lon="101.005574" lat="12.880957">
                <ele>126.000000</ele>
                <time>2015-03-28T07:44:44Z</time>
            </trkpt>
            <trkpt lon="101.005230" lat="12.880647">
                <ele>124.200000</ele>
                <time>2015-03-28T07:44:53Z</time>
            </trkpt>
            <trkpt lon="101.004959" lat="12.880624">
                <ele>123.600000</ele>
                <time>2015-03-28T07:44:58Z</time>
            </trkpt>
            <trkpt lon="101.004734" lat="12.880641">
                <ele>122.600000</ele>
                <time>2015-03-28T07:45:03Z</time>
            </trkpt>
            <trkpt lon="101.004683" lat="12.880641">
                <ele>122.400000</ele>
                <time>2015-03-28T07:45:05Z</time>
            </trkpt>
            <trkpt lon="101.004655" lat="12.880636">
                <ele>122.000000</ele>
                <time>2015-03-28T07:45:07Z</time>
            </trkpt>
            <trkpt lon="101.004652" lat="12.880630">
                <ele>122.000000</ele>
                <time>2015-03-28T07:45:09Z</time>
            </trkpt>
            <trkpt lon="101.004915" lat="12.880505">
                <ele>122.200000</ele>
                <time>2015-03-28T07:45:22Z</time>
            </trkpt>
            <trkpt lon="101.004921" lat="12.880435">
                <ele>122.200000</ele>
                <time>2015-03-28T07:45:24Z</time>
            </trkpt>
            <trkpt lon="101.005548" lat="12.879506">
                <ele>121.600000</ele>
                <time>2015-03-28T07:46:07Z</time>
            </trkpt>
            <trkpt lon="101.005594" lat="12.879433">
                <ele>121.400000</ele>
                <time>2015-03-28T07:46:09Z</time>
            </trkpt>
            <trkpt lon="101.005631" lat="12.879345">
                <ele>121.200000</ele>
                <time>2015-03-28T07:46:11Z</time>
            </trkpt>
            <trkpt lon="101.005661" lat="12.879109">
                <ele>120.200000</ele>
                <time>2015-03-28T07:46:16Z</time>
            </trkpt>
            <trkpt lon="101.005623" lat="12.878956">
                <ele>120.200000</ele>
                <time>2015-03-28T07:46:19Z</time>
            </trkpt>
            <trkpt lon="101.005591" lat="12.878855">
                <ele>120.000000</ele>
                <time>2015-03-28T07:46:21Z</time>
            </trkpt>
            <trkpt lon="101.005446" lat="12.878282">
                <ele>117.800000</ele>
                <time>2015-03-28T07:46:32Z</time>
            </trkpt>
            <trkpt lon="101.005638" lat="12.877970">
                <ele>117.600000</ele>
                <time>2015-03-28T07:47:08Z</time>
            </trkpt>
            <trkpt lon="101.005467" lat="12.876735">
                <ele>116.800000</ele>
                <time>2015-03-28T07:47:39Z</time>
            </trkpt>
            <trkpt lon="101.004983" lat="12.876263">
                <ele>116.000000</ele>
                <time>2015-03-28T07:47:51Z</time>
            </trkpt>
            <trkpt lon="101.004247" lat="12.875282">
                <ele>112.400000</ele>
                <time>2015-03-28T07:48:15Z</time>
            </trkpt>
            <trkpt lon="101.005033" lat="12.876341">
                <ele>114.800000</ele>
                <time>2015-03-28T07:48:54Z</time>
            </trkpt>
            <trkpt lon="101.004504" lat="12.876819">
                <ele>115.800000</ele>
                <time>2015-03-28T07:49:14Z</time>
            </trkpt>
            <trkpt lon="101.003643" lat="12.877049">
                <ele>113.600000</ele>
                <time>2015-03-28T07:49:47Z</time>
            </trkpt>
            <trkpt lon="101.002936" lat="12.877200">
                <ele>114.200000</ele>
                <time>2015-03-28T07:50:11Z</time>
            </trkpt>
            <trkpt lon="101.002028" lat="12.876471">
                <ele>111.800000</ele>
                <time>2015-03-28T07:50:35Z</time>
            </trkpt>
            <trkpt lon="101.001844" lat="12.875727">
                <ele>111.000000</ele>
                <time>2015-03-28T07:50:47Z</time>
            </trkpt>
            <trkpt lon="101.001692" lat="12.875223">
                <ele>109.600000</ele>
                <time>2015-03-28T07:50:55Z</time>
            </trkpt>
            <trkpt lon="101.000196" lat="12.875352">
                <ele>108.000000</ele>
                <time>2015-03-28T07:51:29Z</time>
            </trkpt>
            <trkpt lon="101.000042" lat="12.874038">
                <ele>107.000000</ele>
                <time>2015-03-28T07:52:01Z</time>
            </trkpt>
            <trkpt lon="100.999954" lat="12.873982">
                <ele>106.600000</ele>
                <time>2015-03-28T07:52:03Z</time>
            </trkpt>
            <trkpt lon="100.999096" lat="12.873739">
                <ele>105.600000</ele>
                <time>2015-03-28T07:52:21Z</time>
            </trkpt>
            <trkpt lon="100.998923" lat="12.873700">
                <ele>105.400000</ele>
                <time>2015-03-28T07:52:24Z</time>
            </trkpt>
            <trkpt lon="100.998749" lat="12.873650">
                <ele>105.400000</ele>
                <time>2015-03-28T07:52:27Z</time>
            </trkpt>
            <trkpt lon="100.998367" lat="12.873681">
                <ele>104.800000</ele>
                <time>2015-03-28T07:52:33Z</time>
            </trkpt>
            <trkpt lon="100.998098" lat="12.873697">
                <ele>104.800000</ele>
                <time>2015-03-28T07:52:37Z</time>
            </trkpt>
            <trkpt lon="100.997195" lat="12.873734">
                <ele>103.400000</ele>
                <time>2015-03-28T07:52:52Z</time>
            </trkpt>
            <trkpt lon="100.996716" lat="12.873677">
                <ele>102.000000</ele>
                <time>2015-03-28T07:53:00Z</time>
            </trkpt>
            <trkpt lon="100.996610" lat="12.873667">
                <ele>101.800000</ele>
                <time>2015-03-28T07:53:02Z</time>
            </trkpt>
            <trkpt lon="100.996510" lat="12.873660">
                <ele>101.600000</ele>
                <time>2015-03-28T07:53:04Z</time>
            </trkpt>
            <trkpt lon="100.996329" lat="12.873637">
                <ele>101.200000</ele>
                <time>2015-03-28T07:53:08Z</time>
            </trkpt>
            <trkpt lon="100.996250" lat="12.873622">
                <ele>101.200000</ele>
                <time>2015-03-28T07:53:10Z</time>
            </trkpt>
            <trkpt lon="100.996144" lat="12.873619">
                <ele>101.000000</ele>
                <time>2015-03-28T07:53:13Z</time>
            </trkpt>
            <trkpt lon="100.996260" lat="12.876553">
                <ele>101.000000</ele>
                <time>2015-03-28T07:54:22Z</time>
            </trkpt>
            <trkpt lon="100.995721" lat="12.876711">
                <ele>100.200000</ele>
                <time>2015-03-28T07:54:47Z</time>
            </trkpt>
            <trkpt lon="100.995417" lat="12.875670">
                <ele>100.600000</ele>
                <time>2015-03-28T07:55:19Z</time>
            </trkpt>
            <trkpt lon="100.994973" lat="12.875736">
                <ele>100.800000</ele>
                <time>2015-03-28T07:55:29Z</time>
            </trkpt>
            <trkpt lon="100.993647" lat="12.876133">
                <ele>98.800000</ele>
                <time>2015-03-28T07:55:55Z</time>
            </trkpt>
            <trkpt lon="100.993697" lat="12.876553">
                <ele>98.400000</ele>
                <time>2015-03-28T07:56:04Z</time>
            </trkpt>
            <trkpt lon="100.993461" lat="12.876629">
                <ele>98.600000</ele>
                <time>2015-03-28T07:56:09Z</time>
            </trkpt>
            <trkpt lon="100.993354" lat="12.876654">
                <ele>98.400000</ele>
                <time>2015-03-28T07:56:11Z</time>
            </trkpt>
            <trkpt lon="100.993182" lat="12.876696">
                <ele>98.400000</ele>
                <time>2015-03-28T07:56:14Z</time>
            </trkpt>
            <trkpt lon="100.992421" lat="12.876847">
                <ele>96.800000</ele>
                <time>2015-03-28T07:56:27Z</time>
            </trkpt>
            <trkpt lon="100.991875" lat="12.876748">
                <ele>96.400000</ele>
                <time>2015-03-28T07:56:36Z</time>
            </trkpt>
            <trkpt lon="100.991277" lat="12.876633">
                <ele>95.200000</ele>
                <time>2015-03-28T07:56:46Z</time>
            </trkpt>
            <trkpt lon="100.988753" lat="12.876097">
                <ele>92.200000</ele>
                <time>2015-03-28T07:57:25Z</time>
            </trkpt>
            <trkpt lon="100.987708" lat="12.875845">
                <ele>89.800000</ele>
                <time>2015-03-28T07:57:41Z</time>
            </trkpt>
            <trkpt lon="100.987430" lat="12.875449">
                <ele>88.400000</ele>
                <time>2015-03-28T07:57:48Z</time>
            </trkpt>
            <trkpt lon="100.986954" lat="12.873854">
                <ele>88.000000</ele>
                <time>2015-03-28T07:58:15Z</time>
            </trkpt>
            <trkpt lon="100.986704" lat="12.873039">
                <ele>87.800000</ele>
                <time>2015-03-28T07:58:29Z</time>
            </trkpt>
            <trkpt lon="100.986408" lat="12.872564">
                <ele>87.200000</ele>
                <time>2015-03-28T07:58:38Z</time>
            </trkpt>
            <trkpt lon="100.985531" lat="12.872398">
                <ele>85.600000</ele>
                <time>2015-03-28T07:58:52Z</time>
            </trkpt>
            <trkpt lon="100.984641" lat="12.872413">
                <ele>85.400000</ele>
                <time>2015-03-28T07:59:07Z</time>
            </trkpt>
            <trkpt lon="100.984127" lat="12.871476">
                <ele>83.000000</ele>
                <time>2015-03-28T07:59:25Z</time>
            </trkpt>
            <trkpt lon="100.984076" lat="12.871389">
                <ele>82.800000</ele>
                <time>2015-03-28T07:59:27Z</time>
            </trkpt>
            <trkpt lon="100.983797" lat="12.870967">
                <ele>82.400000</ele>
                <time>2015-03-28T07:59:37Z</time>
            </trkpt>
            <trkpt lon="100.983711" lat="12.870940">
                <ele>82.200000</ele>
                <time>2015-03-28T07:59:39Z</time>
            </trkpt>
            <trkpt lon="100.983198" lat="12.870973">
                <ele>81.800000</ele>
                <time>2015-03-28T07:59:49Z</time>
            </trkpt>
            <trkpt lon="100.983087" lat="12.871427">
                <ele>81.600000</ele>
                <time>2015-03-28T08:00:00Z</time>
            </trkpt>
            <trkpt lon="100.983080" lat="12.871547">
                <ele>81.400000</ele>
                <time>2015-03-28T08:00:03Z</time>
            </trkpt>
            <trkpt lon="100.983061" lat="12.871622">
                <ele>81.600000</ele>
                <time>2015-03-28T08:00:05Z</time>
            </trkpt>
            <trkpt lon="100.983002" lat="12.871660">
                <ele>81.800000</ele>
                <time>2015-03-28T08:00:07Z</time>
            </trkpt>
            <trkpt lon="100.980583" lat="12.871555">
                <ele>79.800000</ele>
                <time>2015-03-28T08:00:57Z</time>
            </trkpt>
            <trkpt lon="100.980537" lat="12.870856">
                <ele>78.800000</ele>
                <time>2015-03-28T08:01:11Z</time>
            </trkpt>
            <trkpt lon="100.980508" lat="12.870563">
                <ele>78.600000</ele>
                <time>2015-03-28T08:01:16Z</time>
            </trkpt>
            <trkpt lon="100.980478" lat="12.870215">
                <ele>78.400000</ele>
                <time>2015-03-28T08:01:23Z</time>
            </trkpt>
            <trkpt lon="100.980227" lat="12.869194">
                <ele>77.600000</ele>
                <time>2015-03-28T08:01:43Z</time>
            </trkpt>
            <trkpt lon="100.979454" lat="12.869297">
                <ele>77.200000</ele>
                <time>2015-03-28T08:01:59Z</time>
            </trkpt>
            <trkpt lon="100.978990" lat="12.869236">
                <ele>76.000000</ele>
                <time>2015-03-28T08:02:08Z</time>
            </trkpt>
            <trkpt lon="100.978441" lat="12.868808">
                <ele>75.000000</ele>
                <time>2015-03-28T08:02:24Z</time>
            </trkpt>
            <trkpt lon="100.977895" lat="12.868722">
                <ele>74.400000</ele>
                <time>2015-03-28T08:02:39Z</time>
            </trkpt>
            <trkpt lon="100.977706" lat="12.868607">
                <ele>73.800000</ele>
                <time>2015-03-28T08:02:45Z</time>
            </trkpt>
            <trkpt lon="100.977710" lat="12.868388">
                <ele>73.400000</ele>
                <time>2015-03-28T08:02:52Z</time>
            </trkpt>
            <trkpt lon="100.977718" lat="12.868347">
                <ele>73.400000</ele>
                <time>2015-03-28T08:02:54Z</time>
            </trkpt>
            <trkpt lon="100.977531" lat="12.868457">
                <ele>73.600000</ele>
                <time>2015-03-28T08:03:05Z</time>
            </trkpt>
            <trkpt lon="100.977307" lat="12.868427">
                <ele>73.600000</ele>
                <time>2015-03-28T08:03:10Z</time>
            </trkpt>
            <trkpt lon="100.977005" lat="12.868381">
                <ele>73.000000</ele>
                <time>2015-03-28T08:03:16Z</time>
            </trkpt>
            <trkpt lon="100.975323" lat="12.867944">
                <ele>71.800000</ele>
                <time>2015-03-28T08:03:55Z</time>
            </trkpt>
            <trkpt lon="100.977036" lat="12.868402">
                <ele>73.000000</ele>
                <time>2015-03-28T08:04:35Z</time>
            </trkpt>
            <trkpt lon="100.976664" lat="12.869112">
                <ele>73.800000</ele>
                <time>2015-03-28T08:04:59Z</time>
            </trkpt>
            <trkpt lon="100.976183" lat="12.869652">
                <ele>73.600000</ele>
                <time>2015-03-28T08:05:13Z</time>
            </trkpt>
            <trkpt lon="100.975571" lat="12.870031">
                <ele>73.000000</ele>
                <time>2015-03-28T08:05:26Z</time>
            </trkpt>
            <trkpt lon="100.975516" lat="12.870135">
                <ele>72.800000</ele>
                <time>2015-03-28T08:05:28Z</time>
            </trkpt>
            <trkpt lon="100.975321" lat="12.870417">
                <ele>72.800000</ele>
                <time>2015-03-28T08:05:34Z</time>
            </trkpt>
            <trkpt lon="100.974432" lat="12.870417">
                <ele>72.000000</ele>
                <time>2015-03-28T08:05:48Z</time>
            </trkpt>
            <trkpt lon="100.972686" lat="12.870028">
                <ele>70.400000</ele>
                <time>2015-03-28T08:06:16Z</time>
            </trkpt>
            <trkpt lon="100.972481" lat="12.869992">
                <ele>70.000000</ele>
                <time>2015-03-28T08:06:19Z</time>
            </trkpt>
            <trkpt lon="100.971038" lat="12.869976">
                <ele>69.400000</ele>
                <time>2015-03-28T08:06:44Z</time>
            </trkpt>
            <trkpt lon="100.970970" lat="12.867468">
                <ele>70.800000</ele>
                <time>2015-03-28T08:29:52Z</time>
            </trkpt>
            <trkpt lon="100.971276" lat="12.867379">
                <ele>70.600000</ele>
                <time>2015-03-28T08:30:03Z</time>
            </trkpt>
            <trkpt lon="100.971737" lat="12.866634">
                <ele>71.200000</ele>
                <time>2015-03-28T08:30:31Z</time>
            </trkpt>
            <trkpt lon="100.971718" lat="12.866416">
                <ele>71.000000</ele>
                <time>2015-03-28T08:30:40Z</time>
            </trkpt>
            <trkpt lon="100.971950" lat="12.866439">
                <ele>70.600000</ele>
                <time>2015-03-28T08:30:47Z</time>
            </trkpt>
            <trkpt lon="100.972020" lat="12.866226">
                <ele>71.200000</ele>
                <time>2015-03-28T08:30:52Z</time>
            </trkpt>
            <trkpt lon="100.972047" lat="12.866074">
                <ele>71.200000</ele>
                <time>2015-03-28T08:30:55Z</time>
            </trkpt>
            <trkpt lon="100.972026" lat="12.865974">
                <ele>71.200000</ele>
                <time>2015-03-28T08:30:57Z</time>
            </trkpt>
            <trkpt lon="100.972282" lat="12.864927">
                <ele>70.000000</ele>
                <time>2015-03-28T08:31:19Z</time>
            </trkpt>
            <trkpt lon="100.972059" lat="12.864821">
                <ele>70.000000</ele>
                <time>2015-03-28T08:31:26Z</time>
            </trkpt>
            <trkpt lon="100.971667" lat="12.864922">
                <ele>69.800000</ele>
                <time>2015-03-28T08:31:35Z</time>
            </trkpt>
            <trkpt lon="100.971501" lat="12.864884">
                <ele>70.000000</ele>
                <time>2015-03-28T08:31:38Z</time>
            </trkpt>
            <trkpt lon="100.971283" lat="12.864821">
                <ele>69.600000</ele>
                <time>2015-03-28T08:31:42Z</time>
            </trkpt>
            <trkpt lon="100.970241" lat="12.864956">
                <ele>69.800000</ele>
                <time>2015-03-28T08:32:00Z</time>
            </trkpt>
            <trkpt lon="100.969818" lat="12.865094">
                <ele>69.200000</ele>
                <time>2015-03-28T08:32:07Z</time>
            </trkpt>
            <trkpt lon="100.969269" lat="12.865155">
                <ele>68.400000</ele>
                <time>2015-03-28T08:32:17Z</time>
            </trkpt>
            <trkpt lon="100.969361" lat="12.864645">
                <ele>68.200000</ele>
                <time>2015-03-28T08:32:28Z</time>
            </trkpt>
            <trkpt lon="100.969038" lat="12.864166">
                <ele>68.800000</ele>
                <time>2015-03-28T08:32:38Z</time>
            </trkpt>
            <trkpt lon="100.969051" lat="12.864105">
                <ele>68.800000</ele>
                <time>2015-03-28T08:32:39Z</time>
            </trkpt>
            <trkpt lon="100.969114" lat="12.863555">
                <ele>68.400000</ele>
                <time>2015-03-28T08:32:48Z</time>
            </trkpt>
            <trkpt lon="100.968908" lat="12.863122">
                <ele>68.400000</ele>
                <time>2015-03-28T08:32:56Z</time>
            </trkpt>
            <trkpt lon="100.968575" lat="12.863110">
                <ele>68.400000</ele>
                <time>2015-03-28T08:33:02Z</time>
            </trkpt>
            <trkpt lon="100.967923" lat="12.863071">
                <ele>68.000000</ele>
                <time>2015-03-28T08:33:12Z</time>
            </trkpt>
            <trkpt lon="100.967607" lat="12.863124">
                <ele>67.800000</ele>
                <time>2015-03-28T08:33:17Z</time>
            </trkpt>
            <trkpt lon="100.966796" lat="12.863219">
                <ele>67.600000</ele>
                <time>2015-03-28T08:33:31Z</time>
            </trkpt>
            <trkpt lon="100.966663" lat="12.863100">
                <ele>67.200000</ele>
                <time>2015-03-28T08:33:35Z</time>
            </trkpt>
            <trkpt lon="100.966137" lat="12.862326">
                <ele>66.400000</ele>
                <time>2015-03-28T08:33:51Z</time>
            </trkpt>
            <trkpt lon="100.966020" lat="12.861655">
                <ele>66.800000</ele>
                <time>2015-03-28T08:34:02Z</time>
            </trkpt>
            <trkpt lon="100.966046" lat="12.861590">
                <ele>66.600000</ele>
                <time>2015-03-28T08:34:04Z</time>
            </trkpt>
            <trkpt lon="100.965637" lat="12.861302">
                <ele>66.200000</ele>
                <time>2015-03-28T08:34:16Z</time>
            </trkpt>
            <trkpt lon="100.965141" lat="12.861274">
                <ele>66.200000</ele>
                <time>2015-03-28T08:34:24Z</time>
            </trkpt>
            <trkpt lon="100.964944" lat="12.861292">
                <ele>65.800000</ele>
                <time>2015-03-28T08:34:27Z</time>
            </trkpt>
            <trkpt lon="100.963922" lat="12.861402">
                <ele>64.600000</ele>
                <time>2015-03-28T08:34:42Z</time>
            </trkpt>
            <trkpt lon="100.963165" lat="12.861666">
                <ele>64.800000</ele>
                <time>2015-03-28T08:34:55Z</time>
            </trkpt>
            <trkpt lon="100.962939" lat="12.861892">
                <ele>64.800000</ele>
                <time>2015-03-28T08:35:01Z</time>
            </trkpt>
            <trkpt lon="100.962841" lat="12.862001">
                <ele>64.200000</ele>
                <time>2015-03-28T08:35:04Z</time>
            </trkpt>
            <trkpt lon="100.962751" lat="12.861837">
                <ele>64.200000</ele>
                <time>2015-03-28T08:35:11Z</time>
            </trkpt>
            <trkpt lon="100.962342" lat="12.860358">
                <ele>64.000000</ele>
                <time>2015-03-28T08:35:41Z</time>
            </trkpt>
            <trkpt lon="100.962270" lat="12.860375">
                <ele>64.000000</ele>
                <time>2015-03-28T08:35:43Z</time>
            </trkpt>
            <trkpt lon="100.961794" lat="12.860432">
                <ele>63.400000</ele>
                <time>2015-03-28T08:35:52Z</time>
            </trkpt>
            <trkpt lon="100.961539" lat="12.860297">
                <ele>63.000000</ele>
                <time>2015-03-28T08:35:57Z</time>
            </trkpt>
            <trkpt lon="100.960915" lat="12.859896">
                <ele>62.800000</ele>
                <time>2015-03-28T08:36:08Z</time>
            </trkpt>
            <trkpt lon="100.960672" lat="12.859808">
                <ele>62.200000</ele>
                <time>2015-03-28T08:36:12Z</time>
            </trkpt>
            <trkpt lon="100.959765" lat="12.859980">
                <ele>61.400000</ele>
                <time>2015-03-28T08:36:26Z</time>
            </trkpt>
            <trkpt lon="100.959672" lat="12.859966">
                <ele>61.400000</ele>
                <time>2015-03-28T08:36:28Z</time>
            </trkpt>
            <trkpt lon="100.959500" lat="12.859687">
                <ele>60.400000</ele>
                <time>2015-03-28T08:36:35Z</time>
            </trkpt>
            <trkpt lon="100.959117" lat="12.859502">
                <ele>61.000000</ele>
                <time>2015-03-28T08:36:42Z</time>
            </trkpt>
            <trkpt lon="100.958669" lat="12.859418">
                <ele>60.200000</ele>
                <time>2015-03-28T08:36:50Z</time>
            </trkpt>
            <trkpt lon="100.958611" lat="12.859177">
                <ele>60.800000</ele>
                <time>2015-03-28T08:36:55Z</time>
            </trkpt>
            <trkpt lon="100.958572" lat="12.859156">
                <ele>60.600000</ele>
                <time>2015-03-28T08:36:56Z</time>
            </trkpt>
            <trkpt lon="100.957777" lat="12.859196">
                <ele>60.600000</ele>
                <time>2015-03-28T08:37:11Z</time>
            </trkpt>
            <trkpt lon="100.957301" lat="12.859027">
                <ele>61.000000</ele>
                <time>2015-03-28T08:37:20Z</time>
            </trkpt>
            <trkpt lon="100.957148" lat="12.858948">
                <ele>60.400000</ele>
                <time>2015-03-28T08:37:23Z</time>
            </trkpt>
            <trkpt lon="100.956575" lat="12.857119">
                <ele>59.200000</ele>
                <time>2015-03-28T08:38:05Z</time>
            </trkpt>
            <trkpt lon="100.956549" lat="12.857090">
                <ele>59.000000</ele>
                <time>2015-03-28T08:38:07Z</time>
            </trkpt>
            <trkpt lon="100.956567" lat="12.857198">
                <ele>58.600000</ele>
                <time>2015-03-28T08:38:18Z</time>
            </trkpt>
            <trkpt lon="100.956495" lat="12.857196">
                <ele>59.000000</ele>
                <time>2015-03-28T08:38:20Z</time>
            </trkpt>
            <trkpt lon="100.956421" lat="12.857176">
                <ele>59.000000</ele>
                <time>2015-03-28T08:38:22Z</time>
            </trkpt>
            <trkpt lon="100.956346" lat="12.857152">
                <ele>59.000000</ele>
                <time>2015-03-28T08:38:24Z</time>
            </trkpt>
            <trkpt lon="100.955813" lat="12.857008">
                <ele>58.200000</ele>
                <time>2015-03-28T08:38:40Z</time>
            </trkpt>
            <trkpt lon="100.955802" lat="12.856998">
                <ele>57.800000</ele>
                <time>2015-03-28T08:38:42Z</time>
            </trkpt>
            <trkpt lon="100.955768" lat="12.856966">
                <ele>58.200000</ele>
                <time>2015-03-28T08:38:50Z</time>
            </trkpt>
            <trkpt lon="100.953995" lat="12.856714">
                <ele>57.600000</ele>
                <time>2015-03-28T08:39:43Z</time>
            </trkpt>
            <trkpt lon="100.954242" lat="12.856522">
                <ele>57.200000</ele>
                <time>2015-03-28T08:40:02Z</time>
            </trkpt>
            <trkpt lon="100.954263" lat="12.856369">
                <ele>57.600000</ele>
                <time>2015-03-28T08:40:08Z</time>
            </trkpt>
            <trkpt lon="100.954260" lat="12.856336">
                <ele>57.400000</ele>
                <time>2015-03-28T08:40:09Z</time>
            </trkpt>
            <trkpt lon="100.954207" lat="12.856251">
                <ele>57.400000</ele>
                <time>2015-03-28T08:40:12Z</time>
            </trkpt>
            <trkpt lon="100.954080" lat="12.855998">
                <ele>58.000000</ele>
                <time>2015-03-28T08:40:21Z</time>
            </trkpt>
            <trkpt lon="100.953701" lat="12.855695">
                <ele>57.400000</ele>
                <time>2015-03-28T08:40:36Z</time>
            </trkpt>
            <trkpt lon="100.953189" lat="12.855501">
                <ele>57.400000</ele>
                <time>2015-03-28T08:40:49Z</time>
            </trkpt>
            <trkpt lon="100.953030" lat="12.855456">
                <ele>57.000000</ele>
                <time>2015-03-28T08:40:53Z</time>
            </trkpt>
            <trkpt lon="100.952469" lat="12.855406">
                <ele>57.400000</ele>
                <time>2015-03-28T08:41:06Z</time>
            </trkpt>
            <trkpt lon="100.952064" lat="12.855139">
                <ele>55.400000</ele>
                <time>2015-03-28T08:41:31Z</time>
            </trkpt>
            <trkpt lon="100.952245" lat="12.855096">
                <ele>56.400000</ele>
                <time>2015-03-28T08:42:03Z</time>
            </trkpt>
            <trkpt lon="100.952238" lat="12.855002">
                <ele>55.800000</ele>
                <time>2015-03-28T08:42:12Z</time>
            </trkpt>
            <trkpt lon="100.952231" lat="12.854888">
                <ele>55.800000</ele>
                <time>2015-03-28T08:42:17Z</time>
            </trkpt>
            <trkpt lon="100.952316" lat="12.854728">
                <ele>56.000000</ele>
                <time>2015-03-28T08:42:25Z</time>
            </trkpt>
            <trkpt lon="100.952350" lat="12.854682">
                <ele>56.000000</ele>
                <time>2015-03-28T08:42:27Z</time>
            </trkpt>
            <trkpt lon="100.952418" lat="12.854542">
                <ele>56.200000</ele>
                <time>2015-03-28T08:42:32Z</time>
            </trkpt>
            <trkpt lon="100.952533" lat="12.854269">
                <ele>56.400000</ele>
                <time>2015-03-28T08:42:42Z</time>
            </trkpt>
            <trkpt lon="100.952595" lat="12.853933">
                <ele>56.200000</ele>
                <time>2015-03-28T08:42:52Z</time>
            </trkpt>
            <trkpt lon="100.952528" lat="12.853720">
                <ele>55.800000</ele>
                <time>2015-03-28T08:42:59Z</time>
            </trkpt>
            <trkpt lon="100.952056" lat="12.853466">
                <ele>56.200000</ele>
                <time>2015-03-28T08:43:13Z</time>
            </trkpt>
            <trkpt lon="100.951891" lat="12.853350">
                <ele>55.600000</ele>
                <time>2015-03-28T08:43:19Z</time>
            </trkpt>
            <trkpt lon="100.952033" lat="12.853077">
                <ele>55.200000</ele>
                <time>2015-03-28T08:43:31Z</time>
            </trkpt>
            <trkpt lon="100.952033" lat="12.853016">
                <ele>55.200000</ele>
                <time>2015-03-28T08:43:34Z</time>
            </trkpt>
            <trkpt lon="100.952057" lat="12.852963">
                <ele>55.400000</ele>
                <time>2015-03-28T08:43:37Z</time>
            </trkpt>
            <trkpt lon="100.952710" lat="12.852628">
                <ele>55.800000</ele>
                <time>2015-03-28T08:44:03Z</time>
            </trkpt>
            <trkpt lon="100.953343" lat="12.852180">
                <ele>55.400000</ele>
                <time>2015-03-28T08:44:26Z</time>
            </trkpt>
            <trkpt lon="100.953915" lat="12.851378">
                <ele>56.200000</ele>
                <time>2015-03-28T08:44:52Z</time>
            </trkpt>
            <trkpt lon="100.954065" lat="12.850942">
                <ele>56.400000</ele>
                <time>2015-03-28T08:45:03Z</time>
            </trkpt>
            <trkpt lon="100.955116" lat="12.850989">
                <ele>56.600000</ele>
                <time>2015-03-28T08:45:33Z</time>
            </trkpt>
            <trkpt lon="100.955238" lat="12.851085">
                <ele>56.600000</ele>
                <time>2015-03-28T08:45:39Z</time>
            </trkpt>
            <trkpt lon="100.955337" lat="12.850848">
                <ele>57.000000</ele>
                <time>2015-03-28T08:45:47Z</time>
            </trkpt>
            <trkpt lon="100.955493" lat="12.850632">
                <ele>56.000000</ele>
                <time>2015-03-28T08:45:54Z</time>
            </trkpt>
            <trkpt lon="100.954796" lat="12.850023">
                <ele>56.000000</ele>
                <time>2015-03-28T08:46:17Z</time>
            </trkpt>
            <trkpt lon="100.954388" lat="12.850094">
                <ele>56.200000</ele>
                <time>2015-03-28T08:46:27Z</time>
            </trkpt>
            <trkpt lon="100.954129" lat="12.850268">
                <ele>56.800000</ele>
                <time>2015-03-28T08:46:34Z</time>
            </trkpt>
            <trkpt lon="100.953914" lat="12.850435">
                <ele>55.800000</ele>
                <time>2015-03-28T08:46:52Z</time>
            </trkpt>
            <trkpt lon="100.953976" lat="12.850115">
                <ele>55.800000</ele>
                <time>2015-03-28T08:47:13Z</time>
            </trkpt>
            <trkpt lon="100.953903" lat="12.849725">
                <ele>55.400000</ele>
                <time>2015-03-28T08:47:38Z</time>
            </trkpt>
            <trkpt lon="100.953906" lat="12.849682">
                <ele>55.200000</ele>
                <time>2015-03-28T08:47:41Z</time>
            </trkpt>
            <trkpt lon="100.953824" lat="12.850092">
                <ele>55.600000</ele>
                <time>2015-03-28T08:48:37Z</time>
            </trkpt>
            <trkpt lon="100.953745" lat="12.850064">
                <ele>55.600000</ele>
                <time>2015-03-28T08:48:42Z</time>
            </trkpt>
            <trkpt lon="100.953673" lat="12.850065">
                <ele>55.600000</ele>
                <time>2015-03-28T08:48:45Z</time>
            </trkpt>
            <trkpt lon="100.953617" lat="12.850089">
                <ele>55.400000</ele>
                <time>2015-03-28T08:48:47Z</time>
            </trkpt>
            <trkpt lon="100.953509" lat="12.850096">
                <ele>55.600000</ele>
                <time>2015-03-28T08:48:50Z</time>
            </trkpt>
            <trkpt lon="100.953447" lat="12.850125">
                <ele>55.600000</ele>
                <time>2015-03-28T08:48:52Z</time>
            </trkpt>
            <trkpt lon="100.953026" lat="12.850341">
                <ele>56.200000</ele>
                <time>2015-03-28T08:49:05Z</time>
            </trkpt>
            <trkpt lon="100.952821" lat="12.850450">
                <ele>56.000000</ele>
                <time>2015-03-28T08:49:11Z</time>
            </trkpt>
            <trkpt lon="100.952572" lat="12.850380">
                <ele>56.000000</ele>
                <time>2015-03-28T08:49:18Z</time>
            </trkpt>
            <trkpt lon="100.952424" lat="12.850357">
                <ele>55.800000</ele>
                <time>2015-03-28T08:49:22Z</time>
            </trkpt>
            <trkpt lon="100.952022" lat="12.850586">
                <ele>55.600000</ele>
                <time>2015-03-28T08:49:33Z</time>
            </trkpt>
            <trkpt lon="100.951918" lat="12.850651">
                <ele>55.400000</ele>
                <time>2015-03-28T08:49:36Z</time>
            </trkpt>
            <trkpt lon="100.951287" lat="12.850899">
                <ele>55.200000</ele>
                <time>2015-03-28T08:49:51Z</time>
            </trkpt>
            <trkpt lon="100.951249" lat="12.850916">
                <ele>55.000000</ele>
                <time>2015-03-28T08:49:52Z</time>
            </trkpt>
            <trkpt lon="100.950879" lat="12.851028">
                <ele>55.600000</ele>
                <time>2015-03-28T08:50:01Z</time>
            </trkpt>
            <trkpt lon="100.950859" lat="12.851045">
                <ele>55.400000</ele>
                <time>2015-03-28T08:50:02Z</time>
            </trkpt>
            <trkpt lon="100.950703" lat="12.851691">
                <ele>55.400000</ele>
                <time>2015-03-28T08:50:19Z</time>
            </trkpt>
            <trkpt lon="100.950134" lat="12.852477">
                <ele>56.400000</ele>
                <time>2015-03-28T08:50:41Z</time>
            </trkpt>
            <trkpt lon="100.949808" lat="12.853327">
                <ele>55.800000</ele>
                <time>2015-03-28T08:51:01Z</time>
            </trkpt>
            <trkpt lon="100.949825" lat="12.853374">
                <ele>55.600000</ele>
                <time>2015-03-28T08:51:03Z</time>
            </trkpt>
            <trkpt lon="100.949705" lat="12.853372">
                <ele>55.400000</ele>
                <time>2015-03-28T08:51:08Z</time>
            </trkpt>
            <trkpt lon="100.949379" lat="12.853930">
                <ele>55.600000</ele>
                <time>2015-03-28T08:51:22Z</time>
            </trkpt>
            <trkpt lon="100.948820" lat="12.854132">
                <ele>55.600000</ele>
                <time>2015-03-28T08:51:34Z</time>
            </trkpt>
            <trkpt lon="100.948615" lat="12.854443">
                <ele>56.200000</ele>
                <time>2015-03-28T08:51:41Z</time>
            </trkpt>
            <trkpt lon="100.948110" lat="12.855495">
                <ele>56.600000</ele>
                <time>2015-03-28T08:52:03Z</time>
            </trkpt>
            <trkpt lon="100.947890" lat="12.855801">
                <ele>56.200000</ele>
                <time>2015-03-28T08:52:12Z</time>
            </trkpt>
            <trkpt lon="100.947435" lat="12.856031">
                <ele>56.000000</ele>
                <time>2015-03-28T08:52:24Z</time>
            </trkpt>
            <trkpt lon="100.947660" lat="12.857292">
                <ele>56.600000</ele>
                <time>2015-03-28T08:52:48Z</time>
            </trkpt>
            <trkpt lon="100.947616" lat="12.858048">
                <ele>57.600000</ele>
                <time>2015-03-28T08:53:03Z</time>
            </trkpt>
            <trkpt lon="100.947619" lat="12.858145">
                <ele>57.800000</ele>
                <time>2015-03-28T08:53:05Z</time>
            </trkpt>
            <trkpt lon="100.947673" lat="12.858922">
                <ele>57.600000</ele>
                <time>2015-03-28T08:53:20Z</time>
            </trkpt>
            <trkpt lon="100.947229" lat="12.858955">
                <ele>57.800000</ele>
                <time>2015-03-28T08:53:29Z</time>
            </trkpt>
            <trkpt lon="100.946765" lat="12.859124">
                <ele>57.200000</ele>
                <time>2015-03-28T08:53:37Z</time>
            </trkpt>
            <trkpt lon="100.946201" lat="12.860184">
                <ele>57.000000</ele>
                <time>2015-03-28T08:53:56Z</time>
            </trkpt>
            <trkpt lon="100.945983" lat="12.860485">
                <ele>57.200000</ele>
                <time>2015-03-28T08:54:02Z</time>
            </trkpt>
            <trkpt lon="100.945657" lat="12.860703">
                <ele>56.200000</ele>
                <time>2015-03-28T08:54:08Z</time>
            </trkpt>
            <trkpt lon="100.945575" lat="12.860935">
                <ele>56.000000</ele>
                <time>2015-03-28T08:54:12Z</time>
            </trkpt>
            <trkpt lon="100.945303" lat="12.861705">
                <ele>55.200000</ele>
                <time>2015-03-28T08:54:27Z</time>
            </trkpt>
            <trkpt lon="100.945252" lat="12.861784">
                <ele>55.000000</ele>
                <time>2015-03-28T08:54:29Z</time>
            </trkpt>
            <trkpt lon="100.945229" lat="12.861832">
                <ele>55.000000</ele>
                <time>2015-03-28T08:54:31Z</time>
            </trkpt>
            <trkpt lon="100.945517" lat="12.861397">
                <ele>54.800000</ele>
                <time>2015-03-28T08:54:51Z</time>
            </trkpt>
            <trkpt lon="100.945696" lat="12.860670">
                <ele>55.000000</ele>
                <time>2015-03-28T08:55:11Z</time>
            </trkpt>
            <trkpt lon="100.945611" lat="12.860785">
                <ele>55.400000</ele>
                <time>2015-03-28T08:55:18Z</time>
            </trkpt>
            <trkpt lon="100.945464" lat="12.861461">
                <ele>55.800000</ele>
                <time>2015-03-28T08:55:32Z</time>
            </trkpt>
            <trkpt lon="100.945370" lat="12.861611">
                <ele>55.800000</ele>
                <time>2015-03-28T08:55:35Z</time>
            </trkpt>
            <trkpt lon="100.945344" lat="12.861649">
                <ele>55.600000</ele>
                <time>2015-03-28T08:55:36Z</time>
            </trkpt>
            <trkpt lon="100.945234" lat="12.861794">
                <ele>55.400000</ele>
                <time>2015-03-28T08:55:39Z</time>
            </trkpt>
            <trkpt lon="100.945459" lat="12.862315">
                <ele>55.600000</ele>
                <time>2015-03-28T08:55:51Z</time>
            </trkpt>
            <trkpt lon="100.945855" lat="12.862381">
                <ele>56.800000</ele>
                <time>2015-03-28T08:56:01Z</time>
            </trkpt>
            <trkpt lon="100.945899" lat="12.862438">
                <ele>57.000000</ele>
                <time>2015-03-28T08:56:03Z</time>
            </trkpt>
            <trkpt lon="100.945999" lat="12.862546">
                <ele>57.600000</ele>
                <time>2015-03-28T08:56:07Z</time>
            </trkpt>
            <trkpt lon="100.946251" lat="12.863142">
                <ele>59.200000</ele>
                <time>2015-03-28T08:56:23Z</time>
            </trkpt>
            <trkpt lon="100.946554" lat="12.863489">
                <ele>60.000000</ele>
                <time>2015-03-28T08:56:34Z</time>
            </trkpt>
            <trkpt lon="100.946780" lat="12.863664">
                <ele>60.800000</ele>
                <time>2015-03-28T08:56:41Z</time>
            </trkpt>
            <trkpt lon="100.946807" lat="12.863729">
                <ele>61.000000</ele>
                <time>2015-03-28T08:56:43Z</time>
            </trkpt>
            <trkpt lon="100.946885" lat="12.863918">
                <ele>61.400000</ele>
                <time>2015-03-28T08:56:49Z</time>
            </trkpt>
            <trkpt lon="100.946979" lat="12.864139">
                <ele>62.600000</ele>
                <time>2015-03-28T08:56:56Z</time>
            </trkpt>
            <trkpt lon="100.947036" lat="12.864203">
                <ele>62.800000</ele>
                <time>2015-03-28T08:56:58Z</time>
            </trkpt>
            <trkpt lon="100.947318" lat="12.864520">
                <ele>63.000000</ele>
                <time>2015-03-28T08:57:07Z</time>
            </trkpt>
            <trkpt lon="100.947716" lat="12.865874">
                <ele>65.600000</ele>
                <time>2015-03-28T08:57:39Z</time>
            </trkpt>
            <trkpt lon="100.948036" lat="12.866349">
                <ele>66.800000</ele>
                <time>2015-03-28T08:57:53Z</time>
            </trkpt>
            <trkpt lon="100.948220" lat="12.866462">
                <ele>66.800000</ele>
                <time>2015-03-28T08:57:58Z</time>
            </trkpt>
            <trkpt lon="100.948846" lat="12.866762">
                <ele>67.600000</ele>
                <time>2015-03-28T08:58:14Z</time>
            </trkpt>
            <trkpt lon="100.949020" lat="12.868650">
                <ele>71.800000</ele>
                <time>2015-03-28T08:58:58Z</time>
            </trkpt>
            <trkpt lon="100.949335" lat="12.869084">
                <ele>71.800000</ele>
                <time>2015-03-28T08:59:10Z</time>
            </trkpt>
            <trkpt lon="100.949362" lat="12.869181">
                <ele>71.800000</ele>
                <time>2015-03-28T08:59:12Z</time>
            </trkpt>
            <trkpt lon="100.949361" lat="12.869449">
                <ele>72.400000</ele>
                <time>2015-03-28T08:59:17Z</time>
            </trkpt>
            <trkpt lon="100.949362" lat="12.869567">
                <ele>72.400000</ele>
                <time>2015-03-28T08:59:19Z</time>
            </trkpt>
            <trkpt lon="100.949338" lat="12.869743">
                <ele>72.400000</ele>
                <time>2015-03-28T08:59:22Z</time>
            </trkpt>
            <trkpt lon="100.949284" lat="12.870043">
                <ele>73.000000</ele>
                <time>2015-03-28T08:59:27Z</time>
            </trkpt>
            <trkpt lon="100.948805" lat="12.870992">
                <ele>72.800000</ele>
                <time>2015-03-28T08:59:47Z</time>
            </trkpt>
            <trkpt lon="100.948656" lat="12.871745">
                <ele>73.600000</ele>
                <time>2015-03-28T09:00:02Z</time>
            </trkpt>
            <trkpt lon="100.948630" lat="12.871907">
                <ele>73.600000</ele>
                <time>2015-03-28T09:00:05Z</time>
            </trkpt>
            <trkpt lon="100.948404" lat="12.872911">
                <ele>72.600000</ele>
                <time>2015-03-28T09:00:24Z</time>
            </trkpt>
            <trkpt lon="100.948516" lat="12.874543">
                <ele>71.400000</ele>
                <time>2015-03-28T09:00:52Z</time>
            </trkpt>
            <trkpt lon="100.948524" lat="12.874989">
                <ele>71.000000</ele>
                <time>2015-03-28T09:00:59Z</time>
            </trkpt>
            <trkpt lon="100.948400" lat="12.875542">
                <ele>70.600000</ele>
                <time>2015-03-28T09:01:08Z</time>
            </trkpt>
            <trkpt lon="100.949036" lat="12.875953">
                <ele>69.800000</ele>
                <time>2015-03-28T09:01:21Z</time>
            </trkpt>
            <trkpt lon="100.949356" lat="12.876543">
                <ele>70.400000</ele>
                <time>2015-03-28T09:01:33Z</time>
            </trkpt>
            <trkpt lon="100.949394" lat="12.876641">
                <ele>70.600000</ele>
                <time>2015-03-28T09:01:35Z</time>
            </trkpt>
            <trkpt lon="100.949177" lat="12.877085">
                <ele>71.600000</ele>
                <time>2015-03-28T09:01:45Z</time>
            </trkpt>
            <trkpt lon="100.948265" lat="12.878189">
                <ele>69.600000</ele>
                <time>2015-03-28T09:06:26Z</time>
            </trkpt>
            <trkpt lon="100.947876" lat="12.880379">
                <ele>70.400000</ele>
                <time>2015-03-28T09:08:14Z</time>
            </trkpt>
            <trkpt lon="100.947874" lat="12.880489">
                <ele>70.200000</ele>
                <time>2015-03-28T09:08:17Z</time>
            </trkpt>
            <trkpt lon="100.947874" lat="12.880569">
                <ele>70.200000</ele>
                <time>2015-03-28T09:08:19Z</time>
            </trkpt>
            <trkpt lon="100.947875" lat="12.880686">
                <ele>70.200000</ele>
                <time>2015-03-28T09:08:22Z</time>
            </trkpt>
            <trkpt lon="100.947845" lat="12.881391">
                <ele>69.600000</ele>
                <time>2015-03-28T09:08:49Z</time>
            </trkpt>
            <trkpt lon="100.947930" lat="12.880235">
                <ele>70.000000</ele>
                <time>2015-03-28T09:09:24Z</time>
            </trkpt>
            <trkpt lon="100.949106" lat="12.880309">
                <ele>74.400000</ele>
                <time>2015-03-28T09:10:57Z</time>
            </trkpt>
            <trkpt lon="100.949686" lat="12.880769">
                <ele>77.600000</ele>
                <time>2015-03-28T09:11:49Z</time>
            </trkpt>
            <trkpt lon="100.950184" lat="12.880591">
                <ele>82.000000</ele>
                <time>2015-03-28T09:12:16Z</time>
            </trkpt>
            <trkpt lon="100.951578" lat="12.880362">
                <ele>86.400000</ele>
                <time>2015-03-28T09:13:03Z</time>
            </trkpt>
            <trkpt lon="100.951897" lat="12.880458">
                <ele>88.600000</ele>
                <time>2015-03-28T09:13:17Z</time>
            </trkpt>
            <trkpt lon="100.952136" lat="12.880524">
                <ele>89.200000</ele>
                <time>2015-03-28T09:13:27Z</time>
            </trkpt>
            <trkpt lon="100.952826" lat="12.880951">
                <ele>90.200000</ele>
                <time>2015-03-28T09:13:55Z</time>
            </trkpt>
            <trkpt lon="100.953338" lat="12.881554">
                <ele>91.400000</ele>
                <time>2015-03-28T09:14:24Z</time>
            </trkpt>
            <trkpt lon="100.953463" lat="12.881722">
                <ele>91.200000</ele>
                <time>2015-03-28T09:14:30Z</time>
            </trkpt>
            <trkpt lon="100.953780" lat="12.882150">
                <ele>93.000000</ele>
                <time>2015-03-28T09:14:46Z</time>
            </trkpt>
            <trkpt lon="100.953915" lat="12.882572">
                <ele>93.000000</ele>
                <time>2015-03-28T09:14:58Z</time>
            </trkpt>
            <trkpt lon="100.953806" lat="12.882847">
                <ele>93.000000</ele>
                <time>2015-03-28T09:15:05Z</time>
            </trkpt>
            <trkpt lon="100.953762" lat="12.883264">
                <ele>92.200000</ele>
                <time>2015-03-28T09:15:15Z</time>
            </trkpt>
            <trkpt lon="100.953832" lat="12.883353">
                <ele>92.200000</ele>
                <time>2015-03-28T09:15:17Z</time>
            </trkpt>
            <trkpt lon="100.953917" lat="12.883469">
                <ele>91.800000</ele>
                <time>2015-03-28T09:15:19Z</time>
            </trkpt>
            <trkpt lon="100.954118" lat="12.883705">
                <ele>90.600000</ele>
                <time>2015-03-28T09:15:23Z</time>
            </trkpt>
            <trkpt lon="100.954352" lat="12.883929">
                <ele>89.000000</ele>
                <time>2015-03-28T09:15:27Z</time>
            </trkpt>
            <trkpt lon="100.954483" lat="12.884031">
                <ele>88.400000</ele>
                <time>2015-03-28T09:15:29Z</time>
            </trkpt>
            <trkpt lon="100.955182" lat="12.884532">
                <ele>86.600000</ele>
                <time>2015-03-28T09:15:40Z</time>
            </trkpt>
            <trkpt lon="100.955556" lat="12.884636">
                <ele>85.600000</ele>
                <time>2015-03-28T09:15:46Z</time>
            </trkpt>
            <trkpt lon="100.955640" lat="12.884679">
                <ele>85.600000</ele>
                <time>2015-03-28T09:15:48Z</time>
            </trkpt>
            <trkpt lon="100.955615" lat="12.885119">
                <ele>86.200000</ele>
                <time>2015-03-28T09:15:55Z</time>
            </trkpt>
            <trkpt lon="100.955622" lat="12.885386">
                <ele>85.200000</ele>
                <time>2015-03-28T09:15:59Z</time>
            </trkpt>
            <trkpt lon="100.955463" lat="12.886906">
                <ele>79.600000</ele>
                <time>2015-03-28T09:16:17Z</time>
            </trkpt>
            <trkpt lon="100.954659" lat="12.888743">
                <ele>77.800000</ele>
                <time>2015-03-28T09:16:45Z</time>
            </trkpt>
            <trkpt lon="100.954384" lat="12.889846">
                <ele>80.200000</ele>
                <time>2015-03-28T09:17:10Z</time>
            </trkpt>
            <trkpt lon="100.954414" lat="12.889865">
                <ele>80.200000</ele>
                <time>2015-03-28T09:17:11Z</time>
            </trkpt>
            <trkpt lon="100.956383" lat="12.889915">
                <ele>83.200000</ele>
                <time>2015-03-28T09:18:01Z</time>
            </trkpt>
            <trkpt lon="100.956826" lat="12.889783">
                <ele>84.000000</ele>
                <time>2015-03-28T09:18:11Z</time>
            </trkpt>
            <trkpt lon="100.957751" lat="12.889253">
                <ele>83.400000</ele>
                <time>2015-03-28T09:18:31Z</time>
            </trkpt>
            <trkpt lon="100.959131" lat="12.889276">
                <ele>83.200000</ele>
                <time>2015-03-28T09:18:53Z</time>
            </trkpt>
            <trkpt lon="100.959390" lat="12.889374">
                <ele>83.200000</ele>
                <time>2015-03-28T09:18:57Z</time>
            </trkpt>
            <trkpt lon="100.959499" lat="12.889433">
                <ele>83.200000</ele>
                <time>2015-03-28T09:18:59Z</time>
            </trkpt>
            <trkpt lon="100.960842" lat="12.890492">
                <ele>82.200000</ele>
                <time>2015-03-28T09:19:23Z</time>
            </trkpt>
            <trkpt lon="100.961218" lat="12.890919">
                <ele>81.200000</ele>
                <time>2015-03-28T09:19:31Z</time>
            </trkpt>
            <trkpt lon="100.962029" lat="12.891221">
                <ele>81.200000</ele>
                <time>2015-03-28T09:19:44Z</time>
            </trkpt>
            <trkpt lon="100.962471" lat="12.891178">
                <ele>81.200000</ele>
                <time>2015-03-28T09:19:51Z</time>
            </trkpt>
            <trkpt lon="100.963170" lat="12.890648">
                <ele>80.600000</ele>
                <time>2015-03-28T09:20:05Z</time>
            </trkpt>
            <trkpt lon="100.963620" lat="12.890540">
                <ele>81.000000</ele>
                <time>2015-03-28T09:20:12Z</time>
            </trkpt>
            <trkpt lon="100.963941" lat="12.890463">
                <ele>80.800000</ele>
                <time>2015-03-28T09:20:17Z</time>
            </trkpt>
            <trkpt lon="100.965486" lat="12.890265">
                <ele>81.200000</ele>
                <time>2015-03-28T09:20:40Z</time>
            </trkpt>
            <trkpt lon="100.965868" lat="12.890393">
                <ele>81.000000</ele>
                <time>2015-03-28T09:20:46Z</time>
            </trkpt>
            <trkpt lon="100.966092" lat="12.890475">
                <ele>81.000000</ele>
                <time>2015-03-28T09:20:50Z</time>
            </trkpt>
            <trkpt lon="100.966395" lat="12.890599">
                <ele>81.600000</ele>
                <time>2015-03-28T09:20:56Z</time>
            </trkpt>
            <trkpt lon="100.966481" lat="12.890641">
                <ele>81.800000</ele>
                <time>2015-03-28T09:20:58Z</time>
            </trkpt>
            <trkpt lon="100.966800" lat="12.890851">
                <ele>82.600000</ele>
                <time>2015-03-28T09:21:06Z</time>
            </trkpt>
            <trkpt lon="100.967186" lat="12.891140">
                <ele>83.800000</ele>
                <time>2015-03-28T09:21:16Z</time>
            </trkpt>
            <trkpt lon="100.967267" lat="12.891194">
                <ele>83.800000</ele>
                <time>2015-03-28T09:21:18Z</time>
            </trkpt>
            <trkpt lon="100.967491" lat="12.891325">
                <ele>84.400000</ele>
                <time>2015-03-28T09:21:24Z</time>
            </trkpt>
            <trkpt lon="100.967556" lat="12.891359">
                <ele>84.600000</ele>
                <time>2015-03-28T09:21:26Z</time>
            </trkpt>
            <trkpt lon="100.967615" lat="12.891377">
                <ele>84.600000</ele>
                <time>2015-03-28T09:21:28Z</time>
            </trkpt>
            <trkpt lon="100.967682" lat="12.891385">
                <ele>84.600000</ele>
                <time>2015-03-28T09:21:31Z</time>
            </trkpt>
            <trkpt lon="100.967682" lat="12.891370">
                <ele>84.600000</ele>
                <time>2015-03-28T09:21:32Z</time>
            </trkpt>
            <trkpt lon="100.966430" lat="12.890570">
                <ele>83.000000</ele>
                <time>2015-03-28T09:22:01Z</time>
            </trkpt>
            <trkpt lon="100.965144" lat="12.890188">
                <ele>82.000000</ele>
                <time>2015-03-28T09:22:26Z</time>
            </trkpt>
            <trkpt lon="100.965103" lat="12.890189">
                <ele>81.600000</ele>
                <time>2015-03-28T09:22:28Z</time>
            </trkpt>
            <trkpt lon="100.965083" lat="12.890082">
                <ele>81.200000</ele>
                <time>2015-03-28T09:22:36Z</time>
            </trkpt>
            <trkpt lon="100.965068" lat="12.890156">
                <ele>80.000000</ele>
                <time>2015-03-28T09:22:51Z</time>
            </trkpt>
            <trkpt lon="100.965067" lat="12.890156">
                <ele>80.200000</ele>
                <time>2015-03-28T09:22:53Z</time>
            </trkpt>
            <trkpt lon="100.964835" lat="12.890254">
                <ele>81.200000</ele>
                <time>2015-03-28T09:23:08Z</time>
            </trkpt>
            <trkpt lon="100.964998" lat="12.890451">
                <ele>81.400000</ele>
                <time>2015-03-28T09:23:25Z</time>
            </trkpt>
            <trkpt lon="100.965215" lat="12.890938">
                <ele>83.000000</ele>
                <time>2015-03-28T09:23:45Z</time>
            </trkpt>
            <trkpt lon="100.965250" lat="12.890993">
                <ele>83.400000</ele>
                <time>2015-03-28T09:23:47Z</time>
            </trkpt>
            <trkpt lon="100.965447" lat="12.891303">
                <ele>85.000000</ele>
                <time>2015-03-28T09:23:59Z</time>
            </trkpt>
            <trkpt lon="100.965650" lat="12.891641">
                <ele>86.200000</ele>
                <time>2015-03-28T09:24:14Z</time>
            </trkpt>
            <trkpt lon="100.965791" lat="12.891685">
                <ele>86.800000</ele>
                <time>2015-03-28T09:24:20Z</time>
            </trkpt>
            <trkpt lon="100.966090" lat="12.891666">
                <ele>87.000000</ele>
                <time>2015-03-28T09:24:29Z</time>
            </trkpt>
            <trkpt lon="100.966210" lat="12.891749">
                <ele>86.800000</ele>
                <time>2015-03-28T09:24:33Z</time>
            </trkpt>
            <trkpt lon="100.966434" lat="12.893552">
                <ele>93.200000</ele>
                <time>2015-03-28T09:26:10Z</time>
            </trkpt>
            <trkpt lon="100.966292" lat="12.893596">
                <ele>94.000000</ele>
                <time>2015-03-28T09:26:17Z</time>
            </trkpt>
            <trkpt lon="100.966051" lat="12.893572">
                <ele>94.400000</ele>
                <time>2015-03-28T09:26:23Z</time>
            </trkpt>
            <trkpt lon="100.965867" lat="12.893559">
                <ele>94.600000</ele>
                <time>2015-03-28T09:26:27Z</time>
            </trkpt>
            <trkpt lon="100.965690" lat="12.893562">
                <ele>95.200000</ele>
                <time>2015-03-28T09:26:31Z</time>
            </trkpt>
            <trkpt lon="100.964175" lat="12.893784">
                <ele>93.400000</ele>
                <time>2015-03-28T09:27:08Z</time>
            </trkpt>
            <trkpt lon="100.966019" lat="12.895096">
                <ele>98.000000</ele>
                <time>2015-03-28T09:28:16Z</time>
            </trkpt>
            <trkpt lon="100.966223" lat="12.895414">
                <ele>99.000000</ele>
                <time>2015-03-28T09:28:31Z</time>
            </trkpt>
            <trkpt lon="100.965947" lat="12.896193">
                <ele>100.000000</ele>
                <time>2015-03-28T09:29:03Z</time>
            </trkpt>
            <trkpt lon="100.965949" lat="12.896311">
                <ele>100.400000</ele>
                <time>2015-03-28T09:29:08Z</time>
            </trkpt>
            <trkpt lon="100.966157" lat="12.896432">
                <ele>101.400000</ele>
                <time>2015-03-28T09:29:17Z</time>
            </trkpt>
            <trkpt lon="100.966769" lat="12.896743">
                <ele>102.400000</ele>
                <time>2015-03-28T09:29:35Z</time>
            </trkpt>
            <trkpt lon="100.967511" lat="12.897322">
                <ele>102.600000</ele>
                <time>2015-03-28T09:29:56Z</time>
            </trkpt>
            <trkpt lon="100.967966" lat="12.898236">
                <ele>102.600000</ele>
                <time>2015-03-28T09:30:17Z</time>
            </trkpt>
            <trkpt lon="100.967594" lat="12.898719">
                <ele>103.000000</ele>
                <time>2015-03-28T09:30:30Z</time>
            </trkpt>
            <trkpt lon="100.967522" lat="12.898755">
                <ele>103.200000</ele>
                <time>2015-03-28T09:30:32Z</time>
            </trkpt>
            <trkpt lon="100.967272" lat="12.898993">
                <ele>103.400000</ele>
                <time>2015-03-28T09:30:40Z</time>
            </trkpt>
            <trkpt lon="100.967152" lat="12.899115">
                <ele>103.600000</ele>
                <time>2015-03-28T09:30:44Z</time>
            </trkpt>
            <trkpt lon="100.967053" lat="12.899357">
                <ele>103.400000</ele>
                <time>2015-03-28T09:30:51Z</time>
            </trkpt>
            <trkpt lon="100.967026" lat="12.899411">
                <ele>103.400000</ele>
                <time>2015-03-28T09:30:53Z</time>
            </trkpt>
            <trkpt lon="100.966986" lat="12.899451">
                <ele>103.600000</ele>
                <time>2015-03-28T09:30:55Z</time>
            </trkpt>
            <trkpt lon="100.966927" lat="12.899470">
                <ele>103.400000</ele>
                <time>2015-03-28T09:30:58Z</time>
            </trkpt>
            <trkpt lon="100.966901" lat="12.899488">
                <ele>103.400000</ele>
                <time>2015-03-28T09:31:00Z</time>
            </trkpt>
            <trkpt lon="100.966873" lat="12.899525">
                <ele>103.400000</ele>
                <time>2015-03-28T09:31:03Z</time>
            </trkpt>
            <trkpt lon="100.966387" lat="12.900255">
                <ele>103.600000</ele>
                <time>2015-03-28T09:31:27Z</time>
            </trkpt>
            <trkpt lon="100.966084" lat="12.900428">
                <ele>104.200000</ele>
                <time>2015-03-28T09:31:34Z</time>
            </trkpt>
            <trkpt lon="100.965193" lat="12.900534">
                <ele>104.000000</ele>
                <time>2015-03-28T09:31:50Z</time>
            </trkpt>
            <trkpt lon="100.964810" lat="12.901130">
                <ele>102.800000</ele>
                <time>2015-03-28T09:32:02Z</time>
            </trkpt>
            <trkpt lon="100.964841" lat="12.901601">
                <ele>102.000000</ele>
                <time>2015-03-28T09:32:10Z</time>
            </trkpt>
            <trkpt lon="100.964861" lat="12.901714">
                <ele>101.800000</ele>
                <time>2015-03-28T09:32:12Z</time>
            </trkpt>
            <trkpt lon="100.964746" lat="12.901990">
                <ele>101.800000</ele>
                <time>2015-03-28T09:32:17Z</time>
            </trkpt>
            <trkpt lon="100.964635" lat="12.902207">
                <ele>101.600000</ele>
                <time>2015-03-28T09:32:21Z</time>
            </trkpt>
            <trkpt lon="100.964635" lat="12.902296">
                <ele>101.400000</ele>
                <time>2015-03-28T09:32:23Z</time>
            </trkpt>
            <trkpt lon="100.964700" lat="12.902354">
                <ele>101.200000</ele>
                <time>2015-03-28T09:32:25Z</time>
            </trkpt>
            <trkpt lon="100.965445" lat="12.902534">
                <ele>101.000000</ele>
                <time>2015-03-28T09:32:42Z</time>
            </trkpt>
            <trkpt lon="100.966338" lat="12.902237">
                <ele>103.000000</ele>
                <time>2015-03-28T09:33:05Z</time>
            </trkpt>
            <trkpt lon="100.966769" lat="12.902152">
                <ele>103.200000</ele>
                <time>2015-03-28T09:33:16Z</time>
            </trkpt>
            <trkpt lon="100.967249" lat="12.902062">
                <ele>103.800000</ele>
                <time>2015-03-28T09:33:27Z</time>
            </trkpt>
            <trkpt lon="100.968080" lat="12.901905">
                <ele>103.800000</ele>
                <time>2015-03-28T09:33:43Z</time>
            </trkpt>
            <trkpt lon="100.968645" lat="12.901604">
                <ele>102.800000</ele>
                <time>2015-03-28T09:33:54Z</time>
            </trkpt>
            <trkpt lon="100.969652" lat="12.901552">
                <ele>101.600000</ele>
                <time>2015-03-28T09:34:10Z</time>
            </trkpt>
            <trkpt lon="100.969689" lat="12.901561">
                <ele>101.400000</ele>
                <time>2015-03-28T09:34:11Z</time>
            </trkpt>
            <trkpt lon="100.969734" lat="12.901588">
                <ele>101.200000</ele>
                <time>2015-03-28T09:34:13Z</time>
            </trkpt>
            <trkpt lon="100.969419" lat="12.902461">
                <ele>101.000000</ele>
                <time>2015-03-28T09:34:41Z</time>
            </trkpt>
            <trkpt lon="100.969286" lat="12.903360">
                <ele>103.000000</ele>
                <time>2015-03-28T09:35:05Z</time>
            </trkpt>
            <trkpt lon="100.969481" lat="12.904873">
                <ele>104.200000</ele>
                <time>2015-03-28T09:35:44Z</time>
            </trkpt>
            <trkpt lon="100.969473" lat="12.904887">
                <ele>104.200000</ele>
                <time>2015-03-28T09:35:45Z</time>
            </trkpt>
            <trkpt lon="100.969530" lat="12.904872">
                <ele>103.800000</ele>
                <time>2015-03-28T09:35:51Z</time>
            </trkpt>
            <trkpt lon="100.969531" lat="12.904872">
                <ele>103.800000</ele>
                <time>2015-03-28T09:35:53Z</time>
            </trkpt>
            <trkpt lon="100.969765" lat="12.905464">
                <ele>104.400000</ele>
                <time>2015-03-28T09:36:15Z</time>
            </trkpt>
            <trkpt lon="100.969802" lat="12.905663">
                <ele>104.400000</ele>
                <time>2015-03-28T09:36:19Z</time>
            </trkpt>
            <trkpt lon="100.969492" lat="12.906416">
                <ele>103.400000</ele>
                <time>2015-03-28T09:36:34Z</time>
            </trkpt>
            <trkpt lon="100.969553" lat="12.906485">
                <ele>103.200000</ele>
                <time>2015-03-28T09:36:36Z</time>
            </trkpt>
            <trkpt lon="100.971969" lat="12.906300">
                <ele>105.400000</ele>
                <time>2015-03-28T09:37:27Z</time>
            </trkpt>
            <trkpt lon="100.972351" lat="12.906132">
                <ele>106.000000</ele>
                <time>2015-03-28T09:37:35Z</time>
            </trkpt>
            <trkpt lon="100.972571" lat="12.905983">
                <ele>106.000000</ele>
                <time>2015-03-28T09:37:40Z</time>
            </trkpt>
            <trkpt lon="100.972797" lat="12.906076">
                <ele>106.400000</ele>
                <time>2015-03-28T09:37:45Z</time>
            </trkpt>
            <trkpt lon="100.973234" lat="12.905916">
                <ele>105.600000</ele>
                <time>2015-03-28T09:37:59Z</time>
            </trkpt>
            <trkpt lon="100.973381" lat="12.906043">
                <ele>105.600000</ele>
                <time>2015-03-28T09:38:10Z</time>
            </trkpt>
        </trkseg>
    </trk>
</gpx>